<?xml version="1.0" encoding="UTF-8" standalone="no" ?>
<gpx xmlns="http://www.topografix.com/GPX/1/1" xmlns:xsi="http://www.w3.org/2001/XMLSchema-instance" xsi:schemaLocation="http://www.topografix.com/GPX/1/1 http://www.topografix.com/GPX/1/1/gpx.xsd" version="1.1" creator="VisuGPX - https://www.visugpx.com">
  <metadata>
    <name>PENE LISE PENE DE BEDOUT</name>
    <desc><![CDATA[Rando au départ du lieu dit Estupas dans la vallée de st marie de campan pas bien long mais raide passage sur les crêtes faut bien faire attention aux lapiaz faut ce servir des mains  ]]></desc>
  </metadata>
  <trk>
    <name><![CDATA[2015-12-20-02]]></name>
    <trkseg>
      <trkpt lat="42.97554" lon="0.24361">
        <ele>910.6</ele>
        <time>2015-12-20T07:38:14Z</time>
      </trkpt>
      <trkpt lat="42.97554" lon="0.24361">
        <ele>910.6</ele>
        <time>2015-12-20T07:38:15Z</time>
      </trkpt>
      <trkpt lat="42.97545" lon="0.2436">
        <ele>911.4</ele>
        <time>2015-12-20T07:38:54Z</time>
      </trkpt>
      <trkpt lat="42.97536" lon="0.24359">
        <ele>912.3</ele>
        <time>2015-12-20T07:39:03Z</time>
      </trkpt>
      <trkpt lat="42.97526" lon="0.2436">
        <ele>913.3</ele>
        <time>2015-12-20T07:39:14Z</time>
      </trkpt>
      <trkpt lat="42.97516" lon="0.24359">
        <ele>914.1</ele>
        <time>2015-12-20T07:40:16Z</time>
      </trkpt>
      <trkpt lat="42.9751" lon="0.24368">
        <ele>914.8</ele>
        <time>2015-12-20T07:40:30Z</time>
      </trkpt>
      <trkpt lat="42.97502" lon="0.24374">
        <ele>915.4</ele>
        <time>2015-12-20T07:40:39Z</time>
      </trkpt>
      <trkpt lat="42.97493" lon="0.24381">
        <ele>916.9</ele>
        <time>2015-12-20T07:40:48Z</time>
      </trkpt>
      <trkpt lat="42.97487" lon="0.24392">
        <ele>917.4</ele>
        <time>2015-12-20T07:40:57Z</time>
      </trkpt>
      <trkpt lat="42.97484" lon="0.24404">
        <ele>917.7</ele>
        <time>2015-12-20T07:41:05Z</time>
      </trkpt>
      <trkpt lat="42.9748" lon="0.24416">
        <ele>918.8</ele>
        <time>2015-12-20T07:41:14Z</time>
      </trkpt>
      <trkpt lat="42.97478" lon="0.24428">
        <ele>920.3</ele>
        <time>2015-12-20T07:41:22Z</time>
      </trkpt>
      <trkpt lat="42.97477" lon="0.24441">
        <ele>921.5</ele>
        <time>2015-12-20T07:41:31Z</time>
      </trkpt>
      <trkpt lat="42.9747" lon="0.24449">
        <ele>923.8</ele>
        <time>2015-12-20T07:41:49Z</time>
      </trkpt>
      <trkpt lat="42.97461" lon="0.24445">
        <ele>927.9</ele>
        <time>2015-12-20T07:42:55Z</time>
      </trkpt>
      <trkpt lat="42.97454" lon="0.24437">
        <ele>931.1</ele>
        <time>2015-12-20T07:43:10Z</time>
      </trkpt>
      <trkpt lat="42.97446" lon="0.2443">
        <ele>933.8</ele>
        <time>2015-12-20T07:43:25Z</time>
      </trkpt>
      <trkpt lat="42.97438" lon="0.24425">
        <ele>936.6</ele>
        <time>2015-12-20T07:43:40Z</time>
      </trkpt>
      <trkpt lat="42.97428" lon="0.24424">
        <ele>939.7</ele>
        <time>2015-12-20T07:43:58Z</time>
      </trkpt>
      <trkpt lat="42.97419" lon="0.24425">
        <ele>943.4</ele>
        <time>2015-12-20T07:44:22Z</time>
      </trkpt>
      <trkpt lat="42.9741" lon="0.24427">
        <ele>946</ele>
        <time>2015-12-20T07:44:35Z</time>
      </trkpt>
      <trkpt lat="42.97401" lon="0.24427">
        <ele>949.1</ele>
        <time>2015-12-20T07:44:51Z</time>
      </trkpt>
      <trkpt lat="42.97392" lon="0.24423">
        <ele>951.8</ele>
        <time>2015-12-20T07:45:10Z</time>
      </trkpt>
      <trkpt lat="42.97383" lon="0.24426">
        <ele>953.7</ele>
        <time>2015-12-20T07:45:33Z</time>
      </trkpt>
      <trkpt lat="42.97373" lon="0.24425">
        <ele>955.9</ele>
        <time>2015-12-20T07:45:47Z</time>
      </trkpt>
      <trkpt lat="42.97365" lon="0.24432">
        <ele>957.5</ele>
        <time>2015-12-20T07:46:00Z</time>
      </trkpt>
      <trkpt lat="42.9736" lon="0.24443">
        <ele>960.9</ele>
        <time>2015-12-20T07:46:21Z</time>
      </trkpt>
      <trkpt lat="42.97354" lon="0.24453">
        <ele>963.4</ele>
        <time>2015-12-20T07:46:36Z</time>
      </trkpt>
      <trkpt lat="42.9735" lon="0.24465">
        <ele>966.1</ele>
        <time>2015-12-20T07:46:52Z</time>
      </trkpt>
      <trkpt lat="42.97345" lon="0.24475">
        <ele>968.6</ele>
        <time>2015-12-20T07:47:05Z</time>
      </trkpt>
      <trkpt lat="42.9734" lon="0.24486">
        <ele>970.8</ele>
        <time>2015-12-20T07:47:20Z</time>
      </trkpt>
      <trkpt lat="42.97334" lon="0.24497">
        <ele>973.4</ele>
        <time>2015-12-20T07:47:37Z</time>
      </trkpt>
      <trkpt lat="42.97339" lon="0.24522">
        <ele>977.1</ele>
        <time>2015-12-20T07:48:03Z</time>
      </trkpt>
      <trkpt lat="42.97336" lon="0.24534">
        <ele>979.2</ele>
        <time>2015-12-20T07:48:16Z</time>
      </trkpt>
      <trkpt lat="42.97329" lon="0.24544">
        <ele>982.3</ele>
        <time>2015-12-20T07:48:33Z</time>
      </trkpt>
      <trkpt lat="42.97327" lon="0.24556">
        <ele>985</ele>
        <time>2015-12-20T07:48:47Z</time>
      </trkpt>
      <trkpt lat="42.97322" lon="0.2458">
        <ele>990.6</ele>
        <time>2015-12-20T07:49:17Z</time>
      </trkpt>
      <trkpt lat="42.97323" lon="0.24593">
        <ele>992</ele>
        <time>2015-12-20T07:49:28Z</time>
      </trkpt>
      <trkpt lat="42.97319" lon="0.24604">
        <ele>994.5</ele>
        <time>2015-12-20T07:49:44Z</time>
      </trkpt>
      <trkpt lat="42.97315" lon="0.24616">
        <ele>996.7</ele>
        <time>2015-12-20T07:50:00Z</time>
      </trkpt>
      <trkpt lat="42.97308" lon="0.24641">
        <ele>1001.2</ele>
        <time>2015-12-20T07:50:30Z</time>
      </trkpt>
      <trkpt lat="42.97302" lon="0.24652">
        <ele>1004.2</ele>
        <time>2015-12-20T07:50:46Z</time>
      </trkpt>
      <trkpt lat="42.97301" lon="0.24664">
        <ele>1006.3</ele>
        <time>2015-12-20T07:51:01Z</time>
      </trkpt>
      <trkpt lat="42.97308" lon="0.24684">
        <ele>1010</ele>
        <time>2015-12-20T07:52:03Z</time>
      </trkpt>
      <trkpt lat="42.97292" lon="0.24714">
        <ele>1015.1</ele>
        <time>2015-12-20T07:54:21Z</time>
      </trkpt>
      <trkpt lat="42.97286" lon="0.24724">
        <ele>1018.8</ele>
        <time>2015-12-20T07:54:40Z</time>
      </trkpt>
      <trkpt lat="42.97285" lon="0.24736">
        <ele>1020.9</ele>
        <time>2015-12-20T07:54:53Z</time>
      </trkpt>
      <trkpt lat="42.97279" lon="0.24745">
        <ele>1023.9</ele>
        <time>2015-12-20T07:55:09Z</time>
      </trkpt>
      <trkpt lat="42.97274" lon="0.2477">
        <ele>1029.3</ele>
        <time>2015-12-20T07:55:44Z</time>
      </trkpt>
      <trkpt lat="42.97273" lon="0.24783">
        <ele>1030.4</ele>
        <time>2015-12-20T07:55:54Z</time>
      </trkpt>
      <trkpt lat="42.97272" lon="0.24795">
        <ele>1032.1</ele>
        <time>2015-12-20T07:56:08Z</time>
      </trkpt>
      <trkpt lat="42.97267" lon="0.24806">
        <ele>1034.4</ele>
        <time>2015-12-20T07:56:23Z</time>
      </trkpt>
      <trkpt lat="42.97261" lon="0.2483">
        <ele>1038.6</ele>
        <time>2015-12-20T07:56:50Z</time>
      </trkpt>
      <trkpt lat="42.97257" lon="0.24841">
        <ele>1040.4</ele>
        <time>2015-12-20T07:57:05Z</time>
      </trkpt>
      <trkpt lat="42.97255" lon="0.24854">
        <ele>1042.7</ele>
        <time>2015-12-20T07:57:23Z</time>
      </trkpt>
      <trkpt lat="42.97254" lon="0.24866">
        <ele>1044.8</ele>
        <time>2015-12-20T07:57:34Z</time>
      </trkpt>
      <trkpt lat="42.97247" lon="0.2489">
        <ele>1049.1</ele>
        <time>2015-12-20T07:57:59Z</time>
      </trkpt>
      <trkpt lat="42.97244" lon="0.24902">
        <ele>1051.7</ele>
        <time>2015-12-20T07:58:14Z</time>
      </trkpt>
      <trkpt lat="42.97241" lon="0.24914">
        <ele>1053.5</ele>
        <time>2015-12-20T07:58:25Z</time>
      </trkpt>
      <trkpt lat="42.97237" lon="0.24926">
        <ele>1056.4</ele>
        <time>2015-12-20T07:58:42Z</time>
      </trkpt>
      <trkpt lat="42.97234" lon="0.24952">
        <ele>1061.3</ele>
        <time>2015-12-20T07:59:21Z</time>
      </trkpt>
      <trkpt lat="42.9723" lon="0.24963">
        <ele>1063.8</ele>
        <time>2015-12-20T07:59:37Z</time>
      </trkpt>
      <trkpt lat="42.97227" lon="0.24976">
        <ele>1066.2</ele>
        <time>2015-12-20T07:59:48Z</time>
      </trkpt>
      <trkpt lat="42.97218" lon="0.24997">
        <ele>1070.7</ele>
        <time>2015-12-20T08:00:18Z</time>
      </trkpt>
      <trkpt lat="42.97212" lon="0.25007">
        <ele>1072.9</ele>
        <time>2015-12-20T08:00:34Z</time>
      </trkpt>
      <trkpt lat="42.97206" lon="0.25016">
        <ele>1075.4</ele>
        <time>2015-12-20T08:00:49Z</time>
      </trkpt>
      <trkpt lat="42.9719" lon="0.25032">
        <ele>1080.6</ele>
        <time>2015-12-20T08:01:23Z</time>
      </trkpt>
      <trkpt lat="42.97181" lon="0.25036">
        <ele>1082.2</ele>
        <time>2015-12-20T08:01:37Z</time>
      </trkpt>
      <trkpt lat="42.97174" lon="0.25044">
        <ele>1085.2</ele>
        <time>2015-12-20T08:01:52Z</time>
      </trkpt>
      <trkpt lat="42.97159" lon="0.25057">
        <ele>1091.4</ele>
        <time>2015-12-20T08:02:28Z</time>
      </trkpt>
      <trkpt lat="42.97155" lon="0.25068">
        <ele>1094.2</ele>
        <time>2015-12-20T08:02:47Z</time>
      </trkpt>
      <trkpt lat="42.97151" lon="0.2508">
        <ele>1096.9</ele>
        <time>2015-12-20T08:03:05Z</time>
      </trkpt>
      <trkpt lat="42.9714" lon="0.251">
        <ele>1102.8</ele>
        <time>2015-12-20T08:03:40Z</time>
      </trkpt>
      <trkpt lat="42.97136" lon="0.25112">
        <ele>1105.5</ele>
        <time>2015-12-20T08:03:57Z</time>
      </trkpt>
      <trkpt lat="42.97131" lon="0.25122">
        <ele>1108.1</ele>
        <time>2015-12-20T08:04:16Z</time>
      </trkpt>
      <trkpt lat="42.97123" lon="0.25145">
        <ele>1112.7</ele>
        <time>2015-12-20T08:05:18Z</time>
      </trkpt>
      <trkpt lat="42.9711" lon="0.25181">
        <ele>1114.2</ele>
        <time>2015-12-20T08:07:12Z</time>
      </trkpt>
      <trkpt lat="42.97105" lon="0.25191">
        <ele>1116.2</ele>
        <time>2015-12-20T08:07:25Z</time>
      </trkpt>
      <trkpt lat="42.97102" lon="0.25203">
        <ele>1119.2</ele>
        <time>2015-12-20T08:07:43Z</time>
      </trkpt>
      <trkpt lat="42.97101" lon="0.25216">
        <ele>1121.2</ele>
        <time>2015-12-20T08:07:56Z</time>
      </trkpt>
      <trkpt lat="42.97101" lon="0.25241">
        <ele>1124.1</ele>
        <time>2015-12-20T08:08:23Z</time>
      </trkpt>
      <trkpt lat="42.97101" lon="0.25253">
        <ele>1127</ele>
        <time>2015-12-20T08:08:38Z</time>
      </trkpt>
      <trkpt lat="42.971" lon="0.25265">
        <ele>1129</ele>
        <time>2015-12-20T08:08:50Z</time>
      </trkpt>
      <trkpt lat="42.97098" lon="0.25278">
        <ele>1130</ele>
        <time>2015-12-20T08:09:04Z</time>
      </trkpt>
      <trkpt lat="42.97102" lon="0.25302">
        <ele>1130.2</ele>
        <time>2015-12-20T08:09:23Z</time>
      </trkpt>
      <trkpt lat="42.97101" lon="0.25316">
        <ele>1129</ele>
        <time>2015-12-20T08:09:41Z</time>
      </trkpt>
      <trkpt lat="42.97101" lon="0.2533">
        <ele>1129.7</ele>
        <time>2015-12-20T08:10:06Z</time>
      </trkpt>
      <trkpt lat="42.97091" lon="0.25352">
        <ele>1130.3</ele>
        <time>2015-12-20T08:10:28Z</time>
      </trkpt>
      <trkpt lat="42.97087" lon="0.25363">
        <ele>1130.9</ele>
        <time>2015-12-20T08:10:40Z</time>
      </trkpt>
      <trkpt lat="42.97085" lon="0.25376">
        <ele>1131.9</ele>
        <time>2015-12-20T08:10:52Z</time>
      </trkpt>
      <trkpt lat="42.97085" lon="0.25388">
        <ele>1133</ele>
        <time>2015-12-20T08:11:02Z</time>
      </trkpt>
      <trkpt lat="42.97085" lon="0.25401">
        <ele>1133.6</ele>
        <time>2015-12-20T08:11:28Z</time>
      </trkpt>
      <trkpt lat="42.97077" lon="0.25425">
        <ele>1136.7</ele>
        <time>2015-12-20T08:12:00Z</time>
      </trkpt>
      <trkpt lat="42.97076" lon="0.25437">
        <ele>1138.5</ele>
        <time>2015-12-20T08:12:13Z</time>
      </trkpt>
      <trkpt lat="42.97079" lon="0.25449">
        <ele>1140.2</ele>
        <time>2015-12-20T08:12:26Z</time>
      </trkpt>
      <trkpt lat="42.9708" lon="0.25461">
        <ele>1141.6</ele>
        <time>2015-12-20T08:12:39Z</time>
      </trkpt>
      <trkpt lat="42.97086" lon="0.25486">
        <ele>1144.2</ele>
        <time>2015-12-20T08:13:07Z</time>
      </trkpt>
      <trkpt lat="42.97087" lon="0.25498">
        <ele>1145.1</ele>
        <time>2015-12-20T08:13:21Z</time>
      </trkpt>
      <trkpt lat="42.9709" lon="0.2551">
        <ele>1147</ele>
        <time>2015-12-20T08:13:35Z</time>
      </trkpt>
      <trkpt lat="42.97092" lon="0.25523">
        <ele>1148.9</ele>
        <time>2015-12-20T08:13:57Z</time>
      </trkpt>
      <trkpt lat="42.97095" lon="0.25548">
        <ele>1150.1</ele>
        <time>2015-12-20T08:14:34Z</time>
      </trkpt>
      <trkpt lat="42.97098" lon="0.25561">
        <ele>1151.5</ele>
        <time>2015-12-20T08:14:49Z</time>
      </trkpt>
      <trkpt lat="42.97103" lon="0.25571">
        <ele>1153</ele>
        <time>2015-12-20T08:15:01Z</time>
      </trkpt>
      <trkpt lat="42.97116" lon="0.25589">
        <ele>1156</ele>
        <time>2015-12-20T08:15:52Z</time>
      </trkpt>
      <trkpt lat="42.97125" lon="0.25595">
        <ele>1157.3</ele>
        <time>2015-12-20T08:16:04Z</time>
      </trkpt>
      <trkpt lat="42.97142" lon="0.25606">
        <ele>1159.8</ele>
        <time>2015-12-20T08:16:49Z</time>
      </trkpt>
      <trkpt lat="42.97149" lon="0.25614">
        <ele>1161.3</ele>
        <time>2015-12-20T08:17:21Z</time>
      </trkpt>
      <trkpt lat="42.97164" lon="0.25629">
        <ele>1164.3</ele>
        <time>2015-12-20T08:18:07Z</time>
      </trkpt>
      <trkpt lat="42.97171" lon="0.25636">
        <ele>1165.3</ele>
        <time>2015-12-20T08:18:19Z</time>
      </trkpt>
      <trkpt lat="42.9718" lon="0.25641">
        <ele>1167.4</ele>
        <time>2015-12-20T08:18:30Z</time>
      </trkpt>
      <trkpt lat="42.97198" lon="0.25651">
        <ele>1170.1</ele>
        <time>2015-12-20T08:18:51Z</time>
      </trkpt>
      <trkpt lat="42.97207" lon="0.25655">
        <ele>1172.3</ele>
        <time>2015-12-20T08:19:03Z</time>
      </trkpt>
      <trkpt lat="42.97215" lon="0.2566">
        <ele>1174.1</ele>
        <time>2015-12-20T08:19:16Z</time>
      </trkpt>
      <trkpt lat="42.97214" lon="0.25673">
        <ele>1175.6</ele>
        <time>2015-12-20T08:20:46Z</time>
      </trkpt>
      <trkpt lat="42.97196" lon="0.25682">
        <ele>1177.3</ele>
        <time>2015-12-20T08:21:15Z</time>
      </trkpt>
      <trkpt lat="42.97188" lon="0.25686">
        <ele>1177.8</ele>
        <time>2015-12-20T08:21:28Z</time>
      </trkpt>
      <trkpt lat="42.97179" lon="0.25691">
        <ele>1178.7</ele>
        <time>2015-12-20T08:21:40Z</time>
      </trkpt>
      <trkpt lat="42.9717" lon="0.25695">
        <ele>1179.1</ele>
        <time>2015-12-20T08:21:53Z</time>
      </trkpt>
      <trkpt lat="42.97152" lon="0.25705">
        <ele>1180.4</ele>
        <time>2015-12-20T08:22:17Z</time>
      </trkpt>
      <trkpt lat="42.97147" lon="0.25715">
        <ele>1181.9</ele>
        <time>2015-12-20T08:22:34Z</time>
      </trkpt>
      <trkpt lat="42.97154" lon="0.25724">
        <ele>1184.3</ele>
        <time>2015-12-20T08:23:08Z</time>
      </trkpt>
      <trkpt lat="42.97172" lon="0.25728">
        <ele>1186</ele>
        <time>2015-12-20T08:23:30Z</time>
      </trkpt>
      <trkpt lat="42.97181" lon="0.25728">
        <ele>1186.7</ele>
        <time>2015-12-20T08:23:40Z</time>
      </trkpt>
      <trkpt lat="42.9719" lon="0.25728">
        <ele>1187.4</ele>
        <time>2015-12-20T08:23:51Z</time>
      </trkpt>
      <trkpt lat="42.972" lon="0.2573">
        <ele>1188.2</ele>
        <time>2015-12-20T08:24:02Z</time>
      </trkpt>
      <trkpt lat="42.97209" lon="0.2573">
        <ele>1189.1</ele>
        <time>2015-12-20T08:24:13Z</time>
      </trkpt>
      <trkpt lat="42.97228" lon="0.25728">
        <ele>1191.4</ele>
        <time>2015-12-20T08:24:36Z</time>
      </trkpt>
      <trkpt lat="42.97238" lon="0.25727">
        <ele>1192.5</ele>
        <time>2015-12-20T08:24:48Z</time>
      </trkpt>
      <trkpt lat="42.97247" lon="0.25727">
        <ele>1193.6</ele>
        <time>2015-12-20T08:24:59Z</time>
      </trkpt>
      <trkpt lat="42.97257" lon="0.25727">
        <ele>1194.8</ele>
        <time>2015-12-20T08:25:10Z</time>
      </trkpt>
      <trkpt lat="42.97266" lon="0.25726">
        <ele>1196</ele>
        <time>2015-12-20T08:25:22Z</time>
      </trkpt>
      <trkpt lat="42.97286" lon="0.25724">
        <ele>1197.7</ele>
        <time>2015-12-20T08:25:45Z</time>
      </trkpt>
      <trkpt lat="42.97296" lon="0.25725">
        <ele>1199.1</ele>
        <time>2015-12-20T08:25:56Z</time>
      </trkpt>
      <trkpt lat="42.97305" lon="0.25727">
        <ele>1199.7</ele>
        <time>2015-12-20T08:26:06Z</time>
      </trkpt>
      <trkpt lat="42.97314" lon="0.25728">
        <ele>1201.1</ele>
        <time>2015-12-20T08:26:18Z</time>
      </trkpt>
      <trkpt lat="42.97324" lon="0.25728">
        <ele>1202.1</ele>
        <time>2015-12-20T08:26:29Z</time>
      </trkpt>
      <trkpt lat="42.97342" lon="0.25734">
        <ele>1204.6</ele>
        <time>2015-12-20T08:26:53Z</time>
      </trkpt>
      <trkpt lat="42.97351" lon="0.25738">
        <ele>1205.6</ele>
        <time>2015-12-20T08:27:05Z</time>
      </trkpt>
      <trkpt lat="42.9736" lon="0.25741">
        <ele>1207.2</ele>
        <time>2015-12-20T08:27:17Z</time>
      </trkpt>
      <trkpt lat="42.97369" lon="0.25745">
        <ele>1208.4</ele>
        <time>2015-12-20T08:27:28Z</time>
      </trkpt>
      <trkpt lat="42.97378" lon="0.25749">
        <ele>1209.1</ele>
        <time>2015-12-20T08:27:38Z</time>
      </trkpt>
      <trkpt lat="42.9739" lon="0.25736">
        <ele>1210.9</ele>
        <time>2015-12-20T08:28:04Z</time>
      </trkpt>
      <trkpt lat="42.97386" lon="0.25724">
        <ele>1211.8</ele>
        <time>2015-12-20T08:28:14Z</time>
      </trkpt>
      <trkpt lat="42.97382" lon="0.25713">
        <ele>1212.7</ele>
        <time>2015-12-20T08:28:25Z</time>
      </trkpt>
      <trkpt lat="42.97378" lon="0.25701">
        <ele>1213.6</ele>
        <time>2015-12-20T08:28:36Z</time>
      </trkpt>
      <trkpt lat="42.97376" lon="0.25688">
        <ele>1214.6</ele>
        <time>2015-12-20T08:28:47Z</time>
      </trkpt>
      <trkpt lat="42.97373" lon="0.25663">
        <ele>1216.7</ele>
        <time>2015-12-20T08:29:09Z</time>
      </trkpt>
      <trkpt lat="42.97369" lon="0.25651">
        <ele>1218.3</ele>
        <time>2015-12-20T08:29:21Z</time>
      </trkpt>
      <trkpt lat="42.97366" lon="0.2564">
        <ele>1218.8</ele>
        <time>2015-12-20T08:29:32Z</time>
      </trkpt>
      <trkpt lat="42.97364" lon="0.25628">
        <ele>1220.1</ele>
        <time>2015-12-20T08:29:43Z</time>
      </trkpt>
      <trkpt lat="42.97365" lon="0.25614">
        <ele>1220.8</ele>
        <time>2015-12-20T08:29:54Z</time>
      </trkpt>
      <trkpt lat="42.97376" lon="0.25593">
        <ele>1222.6</ele>
        <time>2015-12-20T08:30:16Z</time>
      </trkpt>
      <trkpt lat="42.97384" lon="0.25586">
        <ele>1223.3</ele>
        <time>2015-12-20T08:30:28Z</time>
      </trkpt>
      <trkpt lat="42.97392" lon="0.2558">
        <ele>1224.4</ele>
        <time>2015-12-20T08:30:38Z</time>
      </trkpt>
      <trkpt lat="42.97401" lon="0.25574">
        <ele>1225.5</ele>
        <time>2015-12-20T08:30:49Z</time>
      </trkpt>
      <trkpt lat="42.97401" lon="0.25587">
        <ele>1229.3</ele>
        <time>2015-12-20T08:31:21Z</time>
      </trkpt>
      <trkpt lat="42.97396" lon="0.25611">
        <ele>1231.7</ele>
        <time>2015-12-20T08:35:08Z</time>
      </trkpt>
      <trkpt lat="42.97395" lon="0.25635">
        <ele>1231.4</ele>
        <time>2015-12-20T08:35:26Z</time>
      </trkpt>
      <trkpt lat="42.974" lon="0.25646">
        <ele>1231.6</ele>
        <time>2015-12-20T08:35:34Z</time>
      </trkpt>
      <trkpt lat="42.97405" lon="0.25657">
        <ele>1231.6</ele>
        <time>2015-12-20T08:35:43Z</time>
      </trkpt>
      <trkpt lat="42.97409" lon="0.25669">
        <ele>1231.8</ele>
        <time>2015-12-20T08:35:53Z</time>
      </trkpt>
      <trkpt lat="42.97411" lon="0.25682">
        <ele>1231.9</ele>
        <time>2015-12-20T08:36:02Z</time>
      </trkpt>
      <trkpt lat="42.97412" lon="0.25696">
        <ele>1232.2</ele>
        <time>2015-12-20T08:36:12Z</time>
      </trkpt>
      <trkpt lat="42.97422" lon="0.25719">
        <ele>1232.3</ele>
        <time>2015-12-20T08:36:28Z</time>
      </trkpt>
      <trkpt lat="42.97426" lon="0.2573">
        <ele>1232.6</ele>
        <time>2015-12-20T08:36:36Z</time>
      </trkpt>
      <trkpt lat="42.97432" lon="0.2574">
        <ele>1231.9</ele>
        <time>2015-12-20T08:36:45Z</time>
      </trkpt>
      <trkpt lat="42.97437" lon="0.25751">
        <ele>1232.6</ele>
        <time>2015-12-20T08:36:53Z</time>
      </trkpt>
      <trkpt lat="42.97444" lon="0.25761">
        <ele>1232.8</ele>
        <time>2015-12-20T08:37:03Z</time>
      </trkpt>
      <trkpt lat="42.97447" lon="0.25773">
        <ele>1233</ele>
        <time>2015-12-20T08:37:12Z</time>
      </trkpt>
      <trkpt lat="42.97452" lon="0.25784">
        <ele>1233.6</ele>
        <time>2015-12-20T08:37:21Z</time>
      </trkpt>
      <trkpt lat="42.97458" lon="0.25809">
        <ele>1234.5</ele>
        <time>2015-12-20T08:37:39Z</time>
      </trkpt>
      <trkpt lat="42.97458" lon="0.25822">
        <ele>1234.7</ele>
        <time>2015-12-20T08:37:48Z</time>
      </trkpt>
      <trkpt lat="42.97454" lon="0.25833">
        <ele>1234.9</ele>
        <time>2015-12-20T08:37:57Z</time>
      </trkpt>
      <trkpt lat="42.97445" lon="0.25839">
        <ele>1235.6</ele>
        <time>2015-12-20T08:38:06Z</time>
      </trkpt>
      <trkpt lat="42.97436" lon="0.25842">
        <ele>1236.4</ele>
        <time>2015-12-20T08:38:15Z</time>
      </trkpt>
      <trkpt lat="42.97427" lon="0.25845">
        <ele>1236.9</ele>
        <time>2015-12-20T08:38:23Z</time>
      </trkpt>
      <trkpt lat="42.97408" lon="0.2585">
        <ele>1238.2</ele>
        <time>2015-12-20T08:38:41Z</time>
      </trkpt>
      <trkpt lat="42.97399" lon="0.25853">
        <ele>1238.7</ele>
        <time>2015-12-20T08:38:50Z</time>
      </trkpt>
      <trkpt lat="42.9739" lon="0.25858">
        <ele>1239.6</ele>
        <time>2015-12-20T08:39:00Z</time>
      </trkpt>
      <trkpt lat="42.97382" lon="0.25863">
        <ele>1240.3</ele>
        <time>2015-12-20T08:39:09Z</time>
      </trkpt>
      <trkpt lat="42.97373" lon="0.25869">
        <ele>1241</ele>
        <time>2015-12-20T08:39:18Z</time>
      </trkpt>
      <trkpt lat="42.97365" lon="0.25873">
        <ele>1242</ele>
        <time>2015-12-20T08:39:27Z</time>
      </trkpt>
      <trkpt lat="42.97348" lon="0.25883">
        <ele>1243.9</ele>
        <time>2015-12-20T08:39:45Z</time>
      </trkpt>
      <trkpt lat="42.9734" lon="0.2589">
        <ele>1245</ele>
        <time>2015-12-20T08:39:54Z</time>
      </trkpt>
      <trkpt lat="42.9733" lon="0.25895">
        <ele>1245.6</ele>
        <time>2015-12-20T08:40:03Z</time>
      </trkpt>
      <trkpt lat="42.97321" lon="0.25899">
        <ele>1246.8</ele>
        <time>2015-12-20T08:40:13Z</time>
      </trkpt>
      <trkpt lat="42.97313" lon="0.25905">
        <ele>1247.8</ele>
        <time>2015-12-20T08:40:22Z</time>
      </trkpt>
      <trkpt lat="42.97304" lon="0.25909">
        <ele>1248.5</ele>
        <time>2015-12-20T08:40:32Z</time>
      </trkpt>
      <trkpt lat="42.97286" lon="0.2592">
        <ele>1250.3</ele>
        <time>2015-12-20T08:40:52Z</time>
      </trkpt>
      <trkpt lat="42.97277" lon="0.25926">
        <ele>1251.4</ele>
        <time>2015-12-20T08:41:02Z</time>
      </trkpt>
      <trkpt lat="42.97269" lon="0.25932">
        <ele>1252.6</ele>
        <time>2015-12-20T08:41:11Z</time>
      </trkpt>
      <trkpt lat="42.97261" lon="0.25937">
        <ele>1253.5</ele>
        <time>2015-12-20T08:41:20Z</time>
      </trkpt>
      <trkpt lat="42.97253" lon="0.25944">
        <ele>1254.8</ele>
        <time>2015-12-20T08:41:30Z</time>
      </trkpt>
      <trkpt lat="42.97245" lon="0.25952">
        <ele>1255.5</ele>
        <time>2015-12-20T08:41:40Z</time>
      </trkpt>
      <trkpt lat="42.97229" lon="0.25967">
        <ele>1257.5</ele>
        <time>2015-12-20T08:41:59Z</time>
      </trkpt>
      <trkpt lat="42.97222" lon="0.25974">
        <ele>1258.1</ele>
        <time>2015-12-20T08:42:09Z</time>
      </trkpt>
      <trkpt lat="42.97214" lon="0.25981">
        <ele>1258.8</ele>
        <time>2015-12-20T08:42:18Z</time>
      </trkpt>
      <trkpt lat="42.97207" lon="0.25989">
        <ele>1259.6</ele>
        <time>2015-12-20T08:42:27Z</time>
      </trkpt>
      <trkpt lat="42.97199" lon="0.25997">
        <ele>1260.7</ele>
        <time>2015-12-20T08:42:36Z</time>
      </trkpt>
      <trkpt lat="42.97192" lon="0.26004">
        <ele>1261.6</ele>
        <time>2015-12-20T08:42:45Z</time>
      </trkpt>
      <trkpt lat="42.97176" lon="0.2602">
        <ele>1230.7</ele>
        <time>2015-12-20T08:43:05Z</time>
      </trkpt>
      <trkpt lat="42.97167" lon="0.26027">
        <ele>1261.9</ele>
        <time>2015-12-20T08:43:14Z</time>
      </trkpt>
      <trkpt lat="42.97159" lon="0.26034">
        <ele>1264.4</ele>
        <time>2015-12-20T08:43:23Z</time>
      </trkpt>
      <trkpt lat="42.97151" lon="0.26041">
        <ele>1265.4</ele>
        <time>2015-12-20T08:43:32Z</time>
      </trkpt>
      <trkpt lat="42.97144" lon="0.26049">
        <ele>1266.6</ele>
        <time>2015-12-20T08:43:41Z</time>
      </trkpt>
      <trkpt lat="42.97136" lon="0.26057">
        <ele>1267.4</ele>
        <time>2015-12-20T08:43:50Z</time>
      </trkpt>
      <trkpt lat="42.97122" lon="0.26074">
        <ele>1269.2</ele>
        <time>2015-12-20T08:44:10Z</time>
      </trkpt>
      <trkpt lat="42.97115" lon="0.26082">
        <ele>1270</ele>
        <time>2015-12-20T08:44:20Z</time>
      </trkpt>
      <trkpt lat="42.97108" lon="0.2609">
        <ele>1270.8</ele>
        <time>2015-12-20T08:44:29Z</time>
      </trkpt>
      <trkpt lat="42.97101" lon="0.26098">
        <ele>1271.3</ele>
        <time>2015-12-20T08:44:38Z</time>
      </trkpt>
      <trkpt lat="42.97094" lon="0.26106">
        <ele>1272.2</ele>
        <time>2015-12-20T08:44:47Z</time>
      </trkpt>
      <trkpt lat="42.97087" lon="0.26116">
        <ele>1273.2</ele>
        <time>2015-12-20T08:45:08Z</time>
      </trkpt>
      <trkpt lat="42.97074" lon="0.26135">
        <ele>1273.8</ele>
        <time>2015-12-20T08:45:26Z</time>
      </trkpt>
      <trkpt lat="42.97067" lon="0.26144">
        <ele>1274.5</ele>
        <time>2015-12-20T08:45:35Z</time>
      </trkpt>
      <trkpt lat="42.97061" lon="0.26155">
        <ele>1275.4</ele>
        <time>2015-12-20T08:45:44Z</time>
      </trkpt>
      <trkpt lat="42.97056" lon="0.26165">
        <ele>1275.9</ele>
        <time>2015-12-20T08:45:53Z</time>
      </trkpt>
      <trkpt lat="42.97051" lon="0.26175">
        <ele>1276.9</ele>
        <time>2015-12-20T08:46:02Z</time>
      </trkpt>
      <trkpt lat="42.97046" lon="0.26186">
        <ele>1277.6</ele>
        <time>2015-12-20T08:46:11Z</time>
      </trkpt>
      <trkpt lat="42.97039" lon="0.2621">
        <ele>1278.5</ele>
        <time>2015-12-20T08:46:30Z</time>
      </trkpt>
      <trkpt lat="42.97048" lon="0.26211">
        <ele>1280</ele>
        <time>2015-12-20T08:47:00Z</time>
      </trkpt>
      <trkpt lat="42.97057" lon="0.26214">
        <ele>1282.9</ele>
        <time>2015-12-20T08:47:15Z</time>
      </trkpt>
      <trkpt lat="42.97076" lon="0.26212">
        <ele>1287.5</ele>
        <time>2015-12-20T08:47:42Z</time>
      </trkpt>
      <trkpt lat="42.97085" lon="0.26214">
        <ele>1288.7</ele>
        <time>2015-12-20T08:48:51Z</time>
      </trkpt>
      <trkpt lat="42.97113" lon="0.26219">
        <ele>1294</ele>
        <time>2015-12-20T08:56:18Z</time>
      </trkpt>
      <trkpt lat="42.97123" lon="0.26216">
        <ele>1296</ele>
        <time>2015-12-20T08:56:31Z</time>
      </trkpt>
      <trkpt lat="42.97132" lon="0.26216">
        <ele>1297.4</ele>
        <time>2015-12-20T08:56:40Z</time>
      </trkpt>
      <trkpt lat="42.97141" lon="0.26213">
        <ele>1299.5</ele>
        <time>2015-12-20T08:56:53Z</time>
      </trkpt>
      <trkpt lat="42.97159" lon="0.26207">
        <ele>1303.3</ele>
        <time>2015-12-20T08:57:19Z</time>
      </trkpt>
      <trkpt lat="42.97168" lon="0.26205">
        <ele>1305.4</ele>
        <time>2015-12-20T08:57:32Z</time>
      </trkpt>
      <trkpt lat="42.97178" lon="0.26203">
        <ele>1307</ele>
        <time>2015-12-20T08:57:45Z</time>
      </trkpt>
      <trkpt lat="42.97187" lon="0.26199">
        <ele>1307.9</ele>
        <time>2015-12-20T08:57:56Z</time>
      </trkpt>
      <trkpt lat="42.97206" lon="0.26202">
        <ele>1313</ele>
        <time>2015-12-20T08:58:24Z</time>
      </trkpt>
      <trkpt lat="42.97215" lon="0.26202">
        <ele>1314.8</ele>
        <time>2015-12-20T08:58:35Z</time>
      </trkpt>
      <trkpt lat="42.97224" lon="0.26203">
        <ele>1317.6</ele>
        <time>2015-12-20T08:58:49Z</time>
      </trkpt>
      <trkpt lat="42.97233" lon="0.26206">
        <ele>1320.1</ele>
        <time>2015-12-20T08:59:02Z</time>
      </trkpt>
      <trkpt lat="42.97251" lon="0.26211">
        <ele>1325.3</ele>
        <time>2015-12-20T08:59:32Z</time>
      </trkpt>
      <trkpt lat="42.97261" lon="0.26211">
        <ele>1327.5</ele>
        <time>2015-12-20T08:59:46Z</time>
      </trkpt>
      <trkpt lat="42.9727" lon="0.26212">
        <ele>1329.4</ele>
        <time>2015-12-20T08:59:58Z</time>
      </trkpt>
      <trkpt lat="42.97279" lon="0.26211">
        <ele>1331.4</ele>
        <time>2015-12-20T09:00:12Z</time>
      </trkpt>
      <trkpt lat="42.97297" lon="0.26218">
        <ele>1336.7</ele>
        <time>2015-12-20T09:00:41Z</time>
      </trkpt>
      <trkpt lat="42.97304" lon="0.26226">
        <ele>1340.2</ele>
        <time>2015-12-20T09:00:58Z</time>
      </trkpt>
      <trkpt lat="42.97313" lon="0.26229">
        <ele>1342.3</ele>
        <time>2015-12-20T09:01:12Z</time>
      </trkpt>
      <trkpt lat="42.97321" lon="0.26234">
        <ele>1345.5</ele>
        <time>2015-12-20T09:01:26Z</time>
      </trkpt>
      <trkpt lat="42.97339" lon="0.26242">
        <ele>1351.5</ele>
        <time>2015-12-20T09:02:00Z</time>
      </trkpt>
      <trkpt lat="42.97348" lon="0.26244">
        <ele>1353.8</ele>
        <time>2015-12-20T09:02:15Z</time>
      </trkpt>
      <trkpt lat="42.97356" lon="0.26246">
        <ele>1356.2</ele>
        <time>2015-12-20T09:02:31Z</time>
      </trkpt>
      <trkpt lat="42.97374" lon="0.26253">
        <ele>1361.9</ele>
        <time>2015-12-20T09:03:07Z</time>
      </trkpt>
      <trkpt lat="42.97383" lon="0.26259">
        <ele>1365.2</ele>
        <time>2015-12-20T09:03:25Z</time>
      </trkpt>
      <trkpt lat="42.97391" lon="0.26265">
        <ele>1369.2</ele>
        <time>2015-12-20T09:03:45Z</time>
      </trkpt>
      <trkpt lat="42.97407" lon="0.26277">
        <ele>1374.4</ele>
        <time>2015-12-20T09:04:20Z</time>
      </trkpt>
      <trkpt lat="42.97417" lon="0.26279">
        <ele>1377.6</ele>
        <time>2015-12-20T09:04:39Z</time>
      </trkpt>
      <trkpt lat="42.97426" lon="0.26282">
        <ele>1380.1</ele>
        <time>2015-12-20T09:04:56Z</time>
      </trkpt>
      <trkpt lat="42.97443" lon="0.26284">
        <ele>1385.6</ele>
        <time>2015-12-20T09:07:19Z</time>
      </trkpt>
      <trkpt lat="42.9746" lon="0.26295">
        <ele>1391.2</ele>
        <time>2015-12-20T09:07:54Z</time>
      </trkpt>
      <trkpt lat="42.97469" lon="0.26294">
        <ele>1392.2</ele>
        <time>2015-12-20T09:08:09Z</time>
      </trkpt>
      <trkpt lat="42.97477" lon="0.26289">
        <ele>1393.2</ele>
        <time>2015-12-20T09:08:28Z</time>
      </trkpt>
      <trkpt lat="42.97496" lon="0.26293">
        <ele>1397.7</ele>
        <time>2015-12-20T09:08:57Z</time>
      </trkpt>
      <trkpt lat="42.97505" lon="0.26293">
        <ele>1399.5</ele>
        <time>2015-12-20T09:09:10Z</time>
      </trkpt>
      <trkpt lat="42.97514" lon="0.26298">
        <ele>1403</ele>
        <time>2015-12-20T09:09:28Z</time>
      </trkpt>
      <trkpt lat="42.97521" lon="0.26305">
        <ele>1405.8</ele>
        <time>2015-12-20T09:09:48Z</time>
      </trkpt>
      <trkpt lat="42.97546" lon="0.26319">
        <ele>1412.3</ele>
        <time>2015-12-20T09:13:36Z</time>
      </trkpt>
      <trkpt lat="42.97555" lon="0.26322">
        <ele>1414.3</ele>
        <time>2015-12-20T09:13:53Z</time>
      </trkpt>
      <trkpt lat="42.97565" lon="0.26324">
        <ele>1416.9</ele>
        <time>2015-12-20T09:14:08Z</time>
      </trkpt>
      <trkpt lat="42.97583" lon="0.26327">
        <ele>1421.2</ele>
        <time>2015-12-20T09:14:39Z</time>
      </trkpt>
      <trkpt lat="42.97591" lon="0.26331">
        <ele>1423.3</ele>
        <time>2015-12-20T09:14:53Z</time>
      </trkpt>
      <trkpt lat="42.976" lon="0.26333">
        <ele>1425</ele>
        <time>2015-12-20T09:15:05Z</time>
      </trkpt>
      <trkpt lat="42.97609" lon="0.26336">
        <ele>1426.9</ele>
        <time>2015-12-20T09:15:18Z</time>
      </trkpt>
      <trkpt lat="42.97628" lon="0.26342">
        <ele>1430.3</ele>
        <time>2015-12-20T09:15:43Z</time>
      </trkpt>
      <trkpt lat="42.97637" lon="0.26348">
        <ele>1432.3</ele>
        <time>2015-12-20T09:15:58Z</time>
      </trkpt>
      <trkpt lat="42.97645" lon="0.26355">
        <ele>1435.5</ele>
        <time>2015-12-20T09:16:16Z</time>
      </trkpt>
      <trkpt lat="42.97653" lon="0.26361">
        <ele>1437.1</ele>
        <time>2015-12-20T09:16:27Z</time>
      </trkpt>
      <trkpt lat="42.9767" lon="0.26367">
        <ele>1439.8</ele>
        <time>2015-12-20T09:16:50Z</time>
      </trkpt>
      <trkpt lat="42.97679" lon="0.26372">
        <ele>1441</ele>
        <time>2015-12-20T09:17:01Z</time>
      </trkpt>
      <trkpt lat="42.97687" lon="0.26378">
        <ele>1442</ele>
        <time>2015-12-20T09:17:12Z</time>
      </trkpt>
      <trkpt lat="42.97696" lon="0.26382">
        <ele>1443.9</ele>
        <time>2015-12-20T09:17:25Z</time>
      </trkpt>
      <trkpt lat="42.97705" lon="0.26388">
        <ele>1444.7</ele>
        <time>2015-12-20T09:17:35Z</time>
      </trkpt>
      <trkpt lat="42.97721" lon="0.26399">
        <ele>1447.8</ele>
        <time>2015-12-20T09:17:57Z</time>
      </trkpt>
      <trkpt lat="42.9773" lon="0.26403">
        <ele>1448.9</ele>
        <time>2015-12-20T09:18:09Z</time>
      </trkpt>
      <trkpt lat="42.9774" lon="0.26405">
        <ele>1449.4</ele>
        <time>2015-12-20T09:18:20Z</time>
      </trkpt>
      <trkpt lat="42.97748" lon="0.26406">
        <ele>1450.5</ele>
        <time>2015-12-20T09:18:32Z</time>
      </trkpt>
      <trkpt lat="42.97758" lon="0.26402">
        <ele>1452.4</ele>
        <time>2015-12-20T09:18:48Z</time>
      </trkpt>
      <trkpt lat="42.97767" lon="0.26381">
        <ele>1455.2</ele>
        <time>2015-12-20T09:19:21Z</time>
      </trkpt>
      <trkpt lat="42.97774" lon="0.26372">
        <ele>1457.1</ele>
        <time>2015-12-20T09:19:36Z</time>
      </trkpt>
      <trkpt lat="42.97779" lon="0.2636">
        <ele>1458.5</ele>
        <time>2015-12-20T09:19:49Z</time>
      </trkpt>
      <trkpt lat="42.9779" lon="0.26341">
        <ele>1459.3</ele>
        <time>2015-12-20T09:20:09Z</time>
      </trkpt>
      <trkpt lat="42.97798" lon="0.26336">
        <ele>1460.5</ele>
        <time>2015-12-20T09:20:21Z</time>
      </trkpt>
      <trkpt lat="42.97804" lon="0.26326">
        <ele>1462.9</ele>
        <time>2015-12-20T09:20:36Z</time>
      </trkpt>
      <trkpt lat="42.9781" lon="0.26317">
        <ele>1466.7</ele>
        <time>2015-12-20T09:20:55Z</time>
      </trkpt>
      <trkpt lat="42.97824" lon="0.263">
        <ele>1470</ele>
        <time>2015-12-20T09:21:25Z</time>
      </trkpt>
      <trkpt lat="42.97832" lon="0.26294">
        <ele>1471.2</ele>
        <time>2015-12-20T09:21:40Z</time>
      </trkpt>
      <trkpt lat="42.97836" lon="0.26283">
        <ele>1472.6</ele>
        <time>2015-12-20T09:21:53Z</time>
      </trkpt>
      <trkpt lat="42.97842" lon="0.26273">
        <ele>1475</ele>
        <time>2015-12-20T09:22:08Z</time>
      </trkpt>
      <trkpt lat="42.97857" lon="0.26265">
        <ele>1479.6</ele>
        <time>2015-12-20T09:23:32Z</time>
      </trkpt>
      <trkpt lat="42.97869" lon="0.26247">
        <ele>1480.6</ele>
        <time>2015-12-20T09:24:33Z</time>
      </trkpt>
      <trkpt lat="42.97877" lon="0.26225">
        <ele>1482.9</ele>
        <time>2015-12-20T09:24:58Z</time>
      </trkpt>
      <trkpt lat="42.9788" lon="0.26214">
        <ele>1483.1</ele>
        <time>2015-12-20T09:25:10Z</time>
      </trkpt>
      <trkpt lat="42.97887" lon="0.26205">
        <ele>1486</ele>
        <time>2015-12-20T09:25:28Z</time>
      </trkpt>
      <trkpt lat="42.97886" lon="0.26193">
        <ele>1487.2</ele>
        <time>2015-12-20T09:25:44Z</time>
      </trkpt>
      <trkpt lat="42.97891" lon="0.26169">
        <ele>1487.8</ele>
        <time>2015-12-20T09:26:06Z</time>
      </trkpt>
      <trkpt lat="42.97895" lon="0.26157">
        <ele>1489.7</ele>
        <time>2015-12-20T09:26:17Z</time>
      </trkpt>
      <trkpt lat="42.97898" lon="0.26145">
        <ele>1491.6</ele>
        <time>2015-12-20T09:26:30Z</time>
      </trkpt>
      <trkpt lat="42.97906" lon="0.26138">
        <ele>1494.3</ele>
        <time>2015-12-20T09:26:47Z</time>
      </trkpt>
      <trkpt lat="42.97915" lon="0.26118">
        <ele>1495.2</ele>
        <time>2015-12-20T09:27:08Z</time>
      </trkpt>
      <trkpt lat="42.9792" lon="0.26107">
        <ele>1496.3</ele>
        <time>2015-12-20T09:27:19Z</time>
      </trkpt>
      <trkpt lat="42.97925" lon="0.26097">
        <ele>1498</ele>
        <time>2015-12-20T09:27:33Z</time>
      </trkpt>
      <trkpt lat="42.9793" lon="0.26086">
        <ele>1497.9</ele>
        <time>2015-12-20T09:27:44Z</time>
      </trkpt>
      <trkpt lat="42.97936" lon="0.26077">
        <ele>1499.9</ele>
        <time>2015-12-20T09:27:59Z</time>
      </trkpt>
      <trkpt lat="42.97946" lon="0.26056">
        <ele>1500.6</ele>
        <time>2015-12-20T09:28:24Z</time>
      </trkpt>
      <trkpt lat="42.9795" lon="0.26044">
        <ele>1500.8</ele>
        <time>2015-12-20T09:28:36Z</time>
      </trkpt>
      <trkpt lat="42.97958" lon="0.26038">
        <ele>1502.5</ele>
        <time>2015-12-20T09:28:52Z</time>
      </trkpt>
      <trkpt lat="42.97966" lon="0.26031">
        <ele>1503.4</ele>
        <time>2015-12-20T09:29:05Z</time>
      </trkpt>
      <trkpt lat="42.97982" lon="0.26023">
        <ele>1506.6</ele>
        <time>2015-12-20T09:29:39Z</time>
      </trkpt>
      <trkpt lat="42.97985" lon="0.26012">
        <ele>1506.9</ele>
        <time>2015-12-20T09:29:58Z</time>
      </trkpt>
      <trkpt lat="42.97993" lon="0.26004">
        <ele>1506.4</ele>
        <time>2015-12-20T09:30:09Z</time>
      </trkpt>
      <trkpt lat="42.98008" lon="0.2599">
        <ele>1508.6</ele>
        <time>2015-12-20T09:30:41Z</time>
      </trkpt>
      <trkpt lat="42.98018" lon="0.25991">
        <ele>1510.4</ele>
        <time>2015-12-20T09:31:10Z</time>
      </trkpt>
      <trkpt lat="42.98036" lon="0.25985">
        <ele>1511.3</ele>
        <time>2015-12-20T09:31:44Z</time>
      </trkpt>
      <trkpt lat="42.98045" lon="0.25981">
        <ele>1513</ele>
        <time>2015-12-20T09:32:09Z</time>
      </trkpt>
      <trkpt lat="42.98051" lon="0.25973">
        <ele>1512.5</ele>
        <time>2015-12-20T09:32:37Z</time>
      </trkpt>
      <trkpt lat="42.9806" lon="0.25953">
        <ele>1508.5</ele>
        <time>2015-12-20T09:33:20Z</time>
      </trkpt>
      <trkpt lat="42.98063" lon="0.2594">
        <ele>1505.4</ele>
        <time>2015-12-20T09:33:41Z</time>
      </trkpt>
      <trkpt lat="42.9808" lon="0.2593">
        <ele>1503.4</ele>
        <time>2015-12-20T09:34:07Z</time>
      </trkpt>
      <trkpt lat="42.98086" lon="0.25919">
        <ele>1502.7</ele>
        <time>2015-12-20T09:34:19Z</time>
      </trkpt>
      <trkpt lat="42.98095" lon="0.25915">
        <ele>1502.8</ele>
        <time>2015-12-20T09:34:31Z</time>
      </trkpt>
      <trkpt lat="42.98101" lon="0.25906">
        <ele>1501</ele>
        <time>2015-12-20T09:34:49Z</time>
      </trkpt>
      <trkpt lat="42.98118" lon="0.25892">
        <ele>1502.1</ele>
        <time>2015-12-20T09:35:17Z</time>
      </trkpt>
      <trkpt lat="42.98127" lon="0.2589">
        <ele>1503.5</ele>
        <time>2015-12-20T09:35:27Z</time>
      </trkpt>
      <trkpt lat="42.98134" lon="0.25882">
        <ele>1505.7</ele>
        <time>2015-12-20T09:35:47Z</time>
      </trkpt>
      <trkpt lat="42.9814" lon="0.25872">
        <ele>1507</ele>
        <time>2015-12-20T09:36:06Z</time>
      </trkpt>
      <trkpt lat="42.9815" lon="0.2585">
        <ele>1505.7</ele>
        <time>2015-12-20T09:36:32Z</time>
      </trkpt>
      <trkpt lat="42.98152" lon="0.25837">
        <ele>1505.2</ele>
        <time>2015-12-20T09:36:45Z</time>
      </trkpt>
      <trkpt lat="42.98156" lon="0.25826">
        <ele>1505.9</ele>
        <time>2015-12-20T09:36:57Z</time>
      </trkpt>
      <trkpt lat="42.98157" lon="0.25813">
        <ele>1506.9</ele>
        <time>2015-12-20T09:37:07Z</time>
      </trkpt>
      <trkpt lat="42.9816" lon="0.25787">
        <ele>1511.5</ele>
        <time>2015-12-20T09:37:42Z</time>
      </trkpt>
      <trkpt lat="42.98159" lon="0.25774">
        <ele>1511.8</ele>
        <time>2015-12-20T09:37:54Z</time>
      </trkpt>
      <trkpt lat="42.98164" lon="0.25762">
        <ele>1513.3</ele>
        <time>2015-12-20T09:38:08Z</time>
      </trkpt>
      <trkpt lat="42.98179" lon="0.2575">
        <ele>1518.1</ele>
        <time>2015-12-20T09:39:17Z</time>
      </trkpt>
      <trkpt lat="42.98189" lon="0.25727">
        <ele>1523.6</ele>
        <time>2015-12-20T09:40:04Z</time>
      </trkpt>
      <trkpt lat="42.98194" lon="0.25716">
        <ele>1525.9</ele>
        <time>2015-12-20T09:40:21Z</time>
      </trkpt>
      <trkpt lat="42.98207" lon="0.25697">
        <ele>1529.9</ele>
        <time>2015-12-20T09:40:50Z</time>
      </trkpt>
      <trkpt lat="42.98207" lon="0.25684">
        <ele>1529.7</ele>
        <time>2015-12-20T09:41:04Z</time>
      </trkpt>
      <trkpt lat="42.98211" lon="0.25672">
        <ele>1532.2</ele>
        <time>2015-12-20T09:41:29Z</time>
      </trkpt>
      <trkpt lat="42.98212" lon="0.25648">
        <ele>1533.3</ele>
        <time>2015-12-20T09:42:14Z</time>
      </trkpt>
      <trkpt lat="42.98219" lon="0.25639">
        <ele>1532.4</ele>
        <time>2015-12-20T09:42:52Z</time>
      </trkpt>
      <trkpt lat="42.98229" lon="0.25617">
        <ele>1531.1</ele>
        <time>2015-12-20T09:43:18Z</time>
      </trkpt>
      <trkpt lat="42.98236" lon="0.25608">
        <ele>1530.8</ele>
        <time>2015-12-20T09:43:29Z</time>
      </trkpt>
      <trkpt lat="42.9824" lon="0.25597">
        <ele>1530.7</ele>
        <time>2015-12-20T09:43:39Z</time>
      </trkpt>
      <trkpt lat="42.98248" lon="0.25592">
        <ele>1531.9</ele>
        <time>2015-12-20T09:43:50Z</time>
      </trkpt>
      <trkpt lat="42.98254" lon="0.25581">
        <ele>1532.8</ele>
        <time>2015-12-20T09:44:01Z</time>
      </trkpt>
      <trkpt lat="42.98266" lon="0.25563">
        <ele>1534.7</ele>
        <time>2015-12-20T09:44:37Z</time>
      </trkpt>
      <trkpt lat="42.9827" lon="0.25552">
        <ele>1534.5</ele>
        <time>2015-12-20T09:44:50Z</time>
      </trkpt>
      <trkpt lat="42.98273" lon="0.2554">
        <ele>1533.9</ele>
        <time>2015-12-20T09:45:00Z</time>
      </trkpt>
      <trkpt lat="42.98276" lon="0.25528">
        <ele>1533.4</ele>
        <time>2015-12-20T09:45:10Z</time>
      </trkpt>
      <trkpt lat="42.98286" lon="0.25508">
        <ele>1533.1</ele>
        <time>2015-12-20T09:45:29Z</time>
      </trkpt>
      <trkpt lat="42.9829" lon="0.25497">
        <ele>1532.2</ele>
        <time>2015-12-20T09:45:45Z</time>
      </trkpt>
      <trkpt lat="42.98294" lon="0.25486">
        <ele>1530.5</ele>
        <time>2015-12-20T09:45:59Z</time>
      </trkpt>
      <trkpt lat="42.98298" lon="0.25474">
        <ele>1530</ele>
        <time>2015-12-20T09:46:10Z</time>
      </trkpt>
      <trkpt lat="42.98303" lon="0.25465">
        <ele>1530.3</ele>
        <time>2015-12-20T09:46:22Z</time>
      </trkpt>
      <trkpt lat="42.98315" lon="0.25445">
        <ele>1530.1</ele>
        <time>2015-12-20T09:46:51Z</time>
      </trkpt>
      <trkpt lat="42.98324" lon="0.25442">
        <ele>1530.9</ele>
        <time>2015-12-20T09:47:08Z</time>
      </trkpt>
      <trkpt lat="42.98333" lon="0.25441">
        <ele>1531.7</ele>
        <time>2015-12-20T09:47:24Z</time>
      </trkpt>
      <trkpt lat="42.98351" lon="0.25433">
        <ele>1534.8</ele>
        <time>2015-12-20T09:48:00Z</time>
      </trkpt>
      <trkpt lat="42.9836" lon="0.25438">
        <ele>1537.8</ele>
        <time>2015-12-20T09:48:30Z</time>
      </trkpt>
      <trkpt lat="42.98361" lon="0.25463">
        <ele>1546.3</ele>
        <time>2015-12-20T09:49:38Z</time>
      </trkpt>
      <trkpt lat="42.98352" lon="0.25485">
        <ele>1550.6</ele>
        <time>2015-12-20T09:50:14Z</time>
      </trkpt>
      <trkpt lat="42.98349" lon="0.25497">
        <ele>1553.8</ele>
        <time>2015-12-20T09:50:38Z</time>
      </trkpt>
      <trkpt lat="42.98345" lon="0.25508">
        <ele>1556.4</ele>
        <time>2015-12-20T09:51:19Z</time>
      </trkpt>
      <trkpt lat="42.98342" lon="0.25531">
        <ele>1561</ele>
        <time>2015-12-20T09:53:04Z</time>
      </trkpt>
      <trkpt lat="42.98343" lon="0.2555">
        <ele>1566.5</ele>
        <time>2015-12-20T09:57:05Z</time>
      </trkpt>
      <trkpt lat="42.98344" lon="0.25573">
        <ele>1572.9</ele>
        <time>2015-12-20T09:57:46Z</time>
      </trkpt>
      <trkpt lat="42.98343" lon="0.25586">
        <ele>1574.9</ele>
        <time>2015-12-20T09:58:04Z</time>
      </trkpt>
      <trkpt lat="42.98343" lon="0.25598">
        <ele>1578.1</ele>
        <time>2015-12-20T09:58:24Z</time>
      </trkpt>
      <trkpt lat="42.98345" lon="0.25618">
        <ele>1583.8</ele>
        <time>2015-12-20T09:59:03Z</time>
      </trkpt>
      <trkpt lat="42.98341" lon="0.25629">
        <ele>1585.8</ele>
        <time>2015-12-20T09:59:19Z</time>
      </trkpt>
      <trkpt lat="42.9834" lon="0.25641">
        <ele>1588.5</ele>
        <time>2015-12-20T09:59:35Z</time>
      </trkpt>
      <trkpt lat="42.98333" lon="0.25665">
        <ele>1592.8</ele>
        <time>2015-12-20T10:00:06Z</time>
      </trkpt>
      <trkpt lat="42.98328" lon="0.25674">
        <ele>1594</ele>
        <time>2015-12-20T10:00:21Z</time>
      </trkpt>
      <trkpt lat="42.98336" lon="0.25681">
        <ele>1597.5</ele>
        <time>2015-12-20T10:00:41Z</time>
      </trkpt>
      <trkpt lat="42.9834" lon="0.25706">
        <ele>1604.1</ele>
        <time>2015-12-20T10:01:24Z</time>
      </trkpt>
      <trkpt lat="42.98341" lon="0.25718">
        <ele>1606.5</ele>
        <time>2015-12-20T10:01:43Z</time>
      </trkpt>
      <trkpt lat="42.98343" lon="0.25743">
        <ele>1612.1</ele>
        <time>2015-12-20T10:02:21Z</time>
      </trkpt>
      <trkpt lat="42.98345" lon="0.25755">
        <ele>1614.6</ele>
        <time>2015-12-20T10:02:40Z</time>
      </trkpt>
      <trkpt lat="42.9835" lon="0.25766">
        <ele>1616.8</ele>
        <time>2015-12-20T10:02:58Z</time>
      </trkpt>
      <trkpt lat="42.98343" lon="0.2579">
        <ele>1622.2</ele>
        <time>2015-12-20T10:03:34Z</time>
      </trkpt>
      <trkpt lat="42.98336" lon="0.25799">
        <ele>1622.9</ele>
        <time>2015-12-20T10:03:48Z</time>
      </trkpt>
      <trkpt lat="42.98336" lon="0.25812">
        <ele>1626.2</ele>
        <time>2015-12-20T10:04:05Z</time>
      </trkpt>
      <trkpt lat="42.98339" lon="0.25837">
        <ele>1632.7</ele>
        <time>2015-12-20T10:04:50Z</time>
      </trkpt>
      <trkpt lat="42.98336" lon="0.25849">
        <ele>1635.7</ele>
        <time>2015-12-20T10:05:09Z</time>
      </trkpt>
      <trkpt lat="42.98337" lon="0.25873">
        <ele>1642.1</ele>
        <time>2015-12-20T10:05:56Z</time>
      </trkpt>
      <trkpt lat="42.98336" lon="0.25885">
        <ele>1644</ele>
        <time>2015-12-20T10:06:17Z</time>
      </trkpt>
      <trkpt lat="42.98325" lon="0.25907">
        <ele>1645.3</ele>
        <time>2015-12-20T10:06:50Z</time>
      </trkpt>
      <trkpt lat="42.98329" lon="0.25919">
        <ele>1648.7</ele>
        <time>2015-12-20T10:07:10Z</time>
      </trkpt>
      <trkpt lat="42.98326" lon="0.25931">
        <ele>1650.3</ele>
        <time>2015-12-20T10:07:24Z</time>
      </trkpt>
      <trkpt lat="42.98323" lon="0.25955">
        <ele>1656</ele>
        <time>2015-12-20T10:08:00Z</time>
      </trkpt>
      <trkpt lat="42.98322" lon="0.25968">
        <ele>1659.7</ele>
        <time>2015-12-20T10:08:20Z</time>
      </trkpt>
      <trkpt lat="42.98322" lon="0.2598">
        <ele>1662.6</ele>
        <time>2015-12-20T10:08:38Z</time>
      </trkpt>
      <trkpt lat="42.98323" lon="0.26005">
        <ele>1668</ele>
        <time>2015-12-20T10:09:14Z</time>
      </trkpt>
      <trkpt lat="42.98323" lon="0.26018">
        <ele>1669.9</ele>
        <time>2015-12-20T10:09:29Z</time>
      </trkpt>
      <trkpt lat="42.98319" lon="0.2603">
        <ele>1671.6</ele>
        <time>2015-12-20T10:09:45Z</time>
      </trkpt>
      <trkpt lat="42.98318" lon="0.26055">
        <ele>1675</ele>
        <time>2015-12-20T10:10:12Z</time>
      </trkpt>
      <trkpt lat="42.98316" lon="0.26068">
        <ele>1676.7</ele>
        <time>2015-12-20T10:10:26Z</time>
      </trkpt>
      <trkpt lat="42.98313" lon="0.2608">
        <ele>1677.8</ele>
        <time>2015-12-20T10:10:39Z</time>
      </trkpt>
      <trkpt lat="42.9831" lon="0.26093">
        <ele>1679.8</ele>
        <time>2015-12-20T10:10:52Z</time>
      </trkpt>
      <trkpt lat="42.98302" lon="0.26115">
        <ele>1683.5</ele>
        <time>2015-12-20T10:11:20Z</time>
      </trkpt>
      <trkpt lat="42.98297" lon="0.26126">
        <ele>1685.8</ele>
        <time>2015-12-20T10:11:34Z</time>
      </trkpt>
      <trkpt lat="42.9829" lon="0.26134">
        <ele>1688.3</ele>
        <time>2015-12-20T10:11:49Z</time>
      </trkpt>
      <trkpt lat="42.98283" lon="0.26143">
        <ele>1690.7</ele>
        <time>2015-12-20T10:12:06Z</time>
      </trkpt>
      <trkpt lat="42.98273" lon="0.26165">
        <ele>1694.6</ele>
        <time>2015-12-20T10:12:36Z</time>
      </trkpt>
      <trkpt lat="42.98266" lon="0.26173">
        <ele>1696.4</ele>
        <time>2015-12-20T10:12:51Z</time>
      </trkpt>
      <trkpt lat="42.98258" lon="0.2618">
        <ele>1698.9</ele>
        <time>2015-12-20T10:13:11Z</time>
      </trkpt>
      <trkpt lat="42.98241" lon="0.26189">
        <ele>1703.6</ele>
        <time>2015-12-20T10:13:44Z</time>
      </trkpt>
      <trkpt lat="42.98232" lon="0.26194">
        <ele>1706.2</ele>
        <time>2015-12-20T10:14:00Z</time>
      </trkpt>
      <trkpt lat="42.98224" lon="0.262">
        <ele>1707.9</ele>
        <time>2015-12-20T10:14:16Z</time>
      </trkpt>
      <trkpt lat="42.98211" lon="0.26217">
        <ele>1711.2</ele>
        <time>2015-12-20T10:14:44Z</time>
      </trkpt>
      <trkpt lat="42.98206" lon="0.26228">
        <ele>1713</ele>
        <time>2015-12-20T10:14:59Z</time>
      </trkpt>
      <trkpt lat="42.98199" lon="0.26236">
        <ele>1715.4</ele>
        <time>2015-12-20T10:15:15Z</time>
      </trkpt>
      <trkpt lat="42.98192" lon="0.26244">
        <ele>1717.3</ele>
        <time>2015-12-20T10:15:31Z</time>
      </trkpt>
      <trkpt lat="42.98179" lon="0.26263">
        <ele>1721.7</ele>
        <time>2015-12-20T10:16:35Z</time>
      </trkpt>
      <trkpt lat="42.98181" lon="0.26287">
        <ele>1723.4</ele>
        <time>2015-12-20T10:18:01Z</time>
      </trkpt>
      <trkpt lat="42.9818" lon="0.26333">
        <ele>1724.8</ele>
        <time>2015-12-20T10:25:02Z</time>
      </trkpt>
      <trkpt lat="42.98181" lon="0.26346">
        <ele>1725.9</ele>
        <time>2015-12-20T10:25:12Z</time>
      </trkpt>
      <trkpt lat="42.98183" lon="0.26359">
        <ele>1727.2</ele>
        <time>2015-12-20T10:25:22Z</time>
      </trkpt>
      <trkpt lat="42.98183" lon="0.26372">
        <ele>1728.4</ele>
        <time>2015-12-20T10:25:32Z</time>
      </trkpt>
      <trkpt lat="42.98184" lon="0.26384">
        <ele>1730.6</ele>
        <time>2015-12-20T10:25:45Z</time>
      </trkpt>
      <trkpt lat="42.98185" lon="0.26409">
        <ele>1734</ele>
        <time>2015-12-20T10:26:10Z</time>
      </trkpt>
      <trkpt lat="42.98187" lon="0.26422">
        <ele>1735.6</ele>
        <time>2015-12-20T10:26:24Z</time>
      </trkpt>
      <trkpt lat="42.98188" lon="0.26434">
        <ele>1738.7</ele>
        <time>2015-12-20T10:26:48Z</time>
      </trkpt>
      <trkpt lat="42.98184" lon="0.26459">
        <ele>1744.2</ele>
        <time>2015-12-20T10:27:27Z</time>
      </trkpt>
      <trkpt lat="42.9818" lon="0.2647">
        <ele>1747</ele>
        <time>2015-12-20T10:27:49Z</time>
      </trkpt>
      <trkpt lat="42.98185" lon="0.26494">
        <ele>1752.4</ele>
        <time>2015-12-20T10:29:15Z</time>
      </trkpt>
      <trkpt lat="42.98189" lon="0.2653">
        <ele>1754.8</ele>
        <time>2015-12-20T10:33:29Z</time>
      </trkpt>
      <trkpt lat="42.98188" lon="0.26555">
        <ele>1757.3</ele>
        <time>2015-12-20T10:35:15Z</time>
      </trkpt>
      <trkpt lat="42.98186" lon="0.26592">
        <ele>1763.4</ele>
        <time>2015-12-20T10:39:52Z</time>
      </trkpt>
      <trkpt lat="42.98189" lon="0.26616">
        <ele>1763.2</ele>
        <time>2015-12-20T10:41:32Z</time>
      </trkpt>
      <trkpt lat="42.98187" lon="0.26666">
        <ele>1770.5</ele>
        <time>2015-12-20T10:45:47Z</time>
      </trkpt>
      <trkpt lat="42.98182" lon="0.2669">
        <ele>1774.5</ele>
        <time>2015-12-20T10:46:51Z</time>
      </trkpt>
      <trkpt lat="42.98173" lon="0.26712">
        <ele>1779.9</ele>
        <time>2015-12-20T10:47:50Z</time>
      </trkpt>
      <trkpt lat="42.98178" lon="0.26722">
        <ele>1803.1</ele>
        <time>2015-12-20T11:59:22Z</time>
      </trkpt>
      <trkpt lat="42.98164" lon="0.26786">
        <ele>1787.9</ele>
        <time>2015-12-20T12:08:06Z</time>
      </trkpt>
      <trkpt lat="42.98157" lon="0.2681">
        <ele>1786.8</ele>
        <time>2015-12-20T12:08:41Z</time>
      </trkpt>
      <trkpt lat="42.98153" lon="0.26821">
        <ele>1786</ele>
        <time>2015-12-20T12:08:57Z</time>
      </trkpt>
      <trkpt lat="42.9815" lon="0.26833">
        <ele>1784.7</ele>
        <time>2015-12-20T12:09:23Z</time>
      </trkpt>
      <trkpt lat="42.98145" lon="0.26857">
        <ele>1784.3</ele>
        <time>2015-12-20T12:10:01Z</time>
      </trkpt>
      <trkpt lat="42.98144" lon="0.26869">
        <ele>1784.3</ele>
        <time>2015-12-20T12:10:18Z</time>
      </trkpt>
      <trkpt lat="42.98138" lon="0.2688">
        <ele>1784.3</ele>
        <time>2015-12-20T12:10:26Z</time>
      </trkpt>
      <trkpt lat="42.98138" lon="0.26899">
        <ele>1782.1</ele>
        <time>2015-12-20T12:11:08Z</time>
      </trkpt>
      <trkpt lat="42.98132" lon="0.2691">
        <ele>1784.1</ele>
        <time>2015-12-20T12:13:10Z</time>
      </trkpt>
      <trkpt lat="42.98124" lon="0.26934">
        <ele>1782.1</ele>
        <time>2015-12-20T12:13:29Z</time>
      </trkpt>
      <trkpt lat="42.98121" lon="0.26946">
        <ele>1784.8</ele>
        <time>2015-12-20T12:13:40Z</time>
      </trkpt>
      <trkpt lat="42.98117" lon="0.26959">
        <ele>1786.2</ele>
        <time>2015-12-20T12:13:51Z</time>
      </trkpt>
      <trkpt lat="42.98114" lon="0.26971">
        <ele>1787.1</ele>
        <time>2015-12-20T12:14:02Z</time>
      </trkpt>
      <trkpt lat="42.98111" lon="0.26983">
        <ele>1788.9</ele>
        <time>2015-12-20T12:14:16Z</time>
      </trkpt>
      <trkpt lat="42.98106" lon="0.27007">
        <ele>1793.9</ele>
        <time>2015-12-20T12:14:40Z</time>
      </trkpt>
      <trkpt lat="42.98107" lon="0.2702">
        <ele>1795.5</ele>
        <time>2015-12-20T12:14:55Z</time>
      </trkpt>
      <trkpt lat="42.98105" lon="0.27033">
        <ele>1796</ele>
        <time>2015-12-20T12:15:08Z</time>
      </trkpt>
      <trkpt lat="42.98106" lon="0.27045">
        <ele>1797.7</ele>
        <time>2015-12-20T12:15:22Z</time>
      </trkpt>
      <trkpt lat="42.98107" lon="0.27069">
        <ele>1802.8</ele>
        <time>2015-12-20T12:15:53Z</time>
      </trkpt>
      <trkpt lat="42.98108" lon="0.27081">
        <ele>1801.7</ele>
        <time>2015-12-20T12:16:04Z</time>
      </trkpt>
      <trkpt lat="42.98109" lon="0.27094">
        <ele>1802.2</ele>
        <time>2015-12-20T12:16:13Z</time>
      </trkpt>
      <trkpt lat="42.9811" lon="0.27107">
        <ele>1801.2</ele>
        <time>2015-12-20T12:16:23Z</time>
      </trkpt>
      <trkpt lat="42.98114" lon="0.27131">
        <ele>1802.1</ele>
        <time>2015-12-20T12:16:42Z</time>
      </trkpt>
      <trkpt lat="42.98114" lon="0.27144">
        <ele>1800.6</ele>
        <time>2015-12-20T12:16:53Z</time>
      </trkpt>
      <trkpt lat="42.98116" lon="0.27156">
        <ele>1804</ele>
        <time>2015-12-20T12:17:08Z</time>
      </trkpt>
      <trkpt lat="42.98117" lon="0.27168">
        <ele>1805.1</ele>
        <time>2015-12-20T12:17:21Z</time>
      </trkpt>
      <trkpt lat="42.98117" lon="0.27155">
        <ele>1805.4</ele>
        <time>2015-12-20T12:21:44Z</time>
      </trkpt>
      <trkpt lat="42.98111" lon="0.2713">
        <ele>1802</ele>
        <time>2015-12-20T12:22:18Z</time>
      </trkpt>
      <trkpt lat="42.98109" lon="0.27118">
        <ele>1801.8</ele>
        <time>2015-12-20T12:22:29Z</time>
      </trkpt>
      <trkpt lat="42.98107" lon="0.27106">
        <ele>1801.3</ele>
        <time>2015-12-20T12:22:40Z</time>
      </trkpt>
      <trkpt lat="42.98104" lon="0.27094">
        <ele>1800</ele>
        <time>2015-12-20T12:23:27Z</time>
      </trkpt>
      <trkpt lat="42.9809" lon="0.27092">
        <ele>1795.7</ele>
        <time>2015-12-20T12:24:07Z</time>
      </trkpt>
      <trkpt lat="42.98086" lon="0.27104">
        <ele>1793.8</ele>
        <time>2015-12-20T12:24:24Z</time>
      </trkpt>
      <trkpt lat="42.98085" lon="0.27117">
        <ele>1790.6</ele>
        <time>2015-12-20T12:24:38Z</time>
      </trkpt>
      <trkpt lat="42.98078" lon="0.27141">
        <ele>1784.2</ele>
        <time>2015-12-20T12:25:12Z</time>
      </trkpt>
      <trkpt lat="42.98075" lon="0.27153">
        <ele>1781.9</ele>
        <time>2015-12-20T12:25:27Z</time>
      </trkpt>
      <trkpt lat="42.98076" lon="0.27165">
        <ele>1780.1</ele>
        <time>2015-12-20T12:25:56Z</time>
      </trkpt>
      <trkpt lat="42.98072" lon="0.2719">
        <ele>1774.7</ele>
        <time>2015-12-20T12:26:26Z</time>
      </trkpt>
      <trkpt lat="42.98069" lon="0.27202">
        <ele>1772.7</ele>
        <time>2015-12-20T12:26:43Z</time>
      </trkpt>
      <trkpt lat="42.98063" lon="0.27211">
        <ele>1767.9</ele>
        <time>2015-12-20T12:27:06Z</time>
      </trkpt>
      <trkpt lat="42.98057" lon="0.27236">
        <ele>1760.4</ele>
        <time>2015-12-20T12:27:40Z</time>
      </trkpt>
      <trkpt lat="42.98056" lon="0.27248">
        <ele>1758.9</ele>
        <time>2015-12-20T12:27:53Z</time>
      </trkpt>
      <trkpt lat="42.98054" lon="0.27261">
        <ele>1757</ele>
        <time>2015-12-20T12:28:07Z</time>
      </trkpt>
      <trkpt lat="42.98037" lon="0.27263">
        <ele>1748.9</ele>
        <time>2015-12-20T12:28:51Z</time>
      </trkpt>
      <trkpt lat="42.98032" lon="0.27253">
        <ele>1743</ele>
        <time>2015-12-20T12:31:59Z</time>
      </trkpt>
      <trkpt lat="42.9803" lon="0.27257">
        <ele>1743.3</ele>
        <time>2015-12-20T12:32:14Z</time>
      </trkpt>
      <trkpt lat="42.98022" lon="0.2725">
        <ele>1741.9</ele>
        <time>2015-12-20T12:33:27Z</time>
      </trkpt>
      <trkpt lat="42.98016" lon="0.27226">
        <ele>1741.6</ele>
        <time>2015-12-20T12:34:03Z</time>
      </trkpt>
      <trkpt lat="42.98013" lon="0.27214">
        <ele>1740.9</ele>
        <time>2015-12-20T12:34:11Z</time>
      </trkpt>
      <trkpt lat="42.9801" lon="0.272">
        <ele>1740.7</ele>
        <time>2015-12-20T12:34:19Z</time>
      </trkpt>
      <trkpt lat="42.9801" lon="0.27187">
        <ele>1738.6</ele>
        <time>2015-12-20T12:34:28Z</time>
      </trkpt>
      <trkpt lat="42.98008" lon="0.27161">
        <ele>1739.4</ele>
        <time>2015-12-20T12:34:46Z</time>
      </trkpt>
      <trkpt lat="42.98006" lon="0.27148">
        <ele>1738</ele>
        <time>2015-12-20T12:34:56Z</time>
      </trkpt>
      <trkpt lat="42.98002" lon="0.27136">
        <ele>1737.2</ele>
        <time>2015-12-20T12:35:04Z</time>
      </trkpt>
      <trkpt lat="42.98" lon="0.27124">
        <ele>1736.1</ele>
        <time>2015-12-20T12:35:14Z</time>
      </trkpt>
      <trkpt lat="42.97998" lon="0.2711">
        <ele>1737.1</ele>
        <time>2015-12-20T12:35:23Z</time>
      </trkpt>
      <trkpt lat="42.97995" lon="0.27097">
        <ele>1735.1</ele>
        <time>2015-12-20T12:35:31Z</time>
      </trkpt>
      <trkpt lat="42.97987" lon="0.27073">
        <ele>1734.2</ele>
        <time>2015-12-20T12:35:48Z</time>
      </trkpt>
      <trkpt lat="42.97985" lon="0.27061">
        <ele>1733.3</ele>
        <time>2015-12-20T12:35:57Z</time>
      </trkpt>
      <trkpt lat="42.97994" lon="0.2706">
        <ele>1732.5</ele>
        <time>2015-12-20T12:36:18Z</time>
      </trkpt>
      <trkpt lat="42.97986" lon="0.27053">
        <ele>1733.2</ele>
        <time>2015-12-20T12:36:39Z</time>
      </trkpt>
      <trkpt lat="42.97979" lon="0.27029">
        <ele>1731.8</ele>
        <time>2015-12-20T12:36:55Z</time>
      </trkpt>
      <trkpt lat="42.97977" lon="0.27017">
        <ele>1730.3</ele>
        <time>2015-12-20T12:37:03Z</time>
      </trkpt>
      <trkpt lat="42.97975" lon="0.27004">
        <ele>1728.3</ele>
        <time>2015-12-20T12:37:12Z</time>
      </trkpt>
      <trkpt lat="42.97975" lon="0.26992">
        <ele>1728.5</ele>
        <time>2015-12-20T12:37:22Z</time>
      </trkpt>
      <trkpt lat="42.97978" lon="0.26979">
        <ele>1728.8</ele>
        <time>2015-12-20T12:37:52Z</time>
      </trkpt>
      <trkpt lat="42.97979" lon="0.26954">
        <ele>1724.2</ele>
        <time>2015-12-20T12:38:16Z</time>
      </trkpt>
      <trkpt lat="42.9798" lon="0.2694">
        <ele>1724.1</ele>
        <time>2015-12-20T12:38:27Z</time>
      </trkpt>
      <trkpt lat="42.97984" lon="0.26929">
        <ele>1721</ele>
        <time>2015-12-20T12:38:39Z</time>
      </trkpt>
      <trkpt lat="42.97989" lon="0.26918">
        <ele>1720.1</ele>
        <time>2015-12-20T12:38:51Z</time>
      </trkpt>
      <trkpt lat="42.97995" lon="0.26909">
        <ele>1718.1</ele>
        <time>2015-12-20T12:39:01Z</time>
      </trkpt>
      <trkpt lat="42.97999" lon="0.26885">
        <ele>1714.2</ele>
        <time>2015-12-20T12:40:16Z</time>
      </trkpt>
      <trkpt lat="42.9799" lon="0.26863">
        <ele>1704.6</ele>
        <time>2015-12-20T12:40:48Z</time>
      </trkpt>
      <trkpt lat="42.97984" lon="0.26854">
        <ele>1701.6</ele>
        <time>2015-12-20T12:41:05Z</time>
      </trkpt>
      <trkpt lat="42.97987" lon="0.26842">
        <ele>1698.8</ele>
        <time>2015-12-20T12:41:16Z</time>
      </trkpt>
      <trkpt lat="42.97992" lon="0.26832">
        <ele>1696.5</ele>
        <time>2015-12-20T12:41:26Z</time>
      </trkpt>
      <trkpt lat="42.98001" lon="0.26809">
        <ele>1694.7</ele>
        <time>2015-12-20T12:41:43Z</time>
      </trkpt>
      <trkpt lat="42.98002" lon="0.26796">
        <ele>1692.5</ele>
        <time>2015-12-20T12:41:59Z</time>
      </trkpt>
      <trkpt lat="42.98006" lon="0.26783">
        <ele>1690.7</ele>
        <time>2015-12-20T12:42:11Z</time>
      </trkpt>
      <trkpt lat="42.98007" lon="0.26771">
        <ele>1688.5</ele>
        <time>2015-12-20T12:42:23Z</time>
      </trkpt>
      <trkpt lat="42.98009" lon="0.26758">
        <ele>1685.4</ele>
        <time>2015-12-20T12:42:38Z</time>
      </trkpt>
      <trkpt lat="42.98004" lon="0.26734">
        <ele>1678.5</ele>
        <time>2015-12-20T12:43:08Z</time>
      </trkpt>
      <trkpt lat="42.98001" lon="0.26722">
        <ele>1675.8</ele>
        <time>2015-12-20T12:43:21Z</time>
      </trkpt>
      <trkpt lat="42.97998" lon="0.2671">
        <ele>1672.3</ele>
        <time>2015-12-20T12:43:34Z</time>
      </trkpt>
      <trkpt lat="42.97998" lon="0.26697">
        <ele>1669.7</ele>
        <time>2015-12-20T12:43:49Z</time>
      </trkpt>
      <trkpt lat="42.98006" lon="0.26674">
        <ele>1667</ele>
        <time>2015-12-20T12:47:11Z</time>
      </trkpt>
      <trkpt lat="42.98003" lon="0.26671">
        <ele>1667.1</ele>
        <time>2015-12-20T12:50:01Z</time>
      </trkpt>
      <trkpt lat="42.98001" lon="0.26633">
        <ele>1657.9</ele>
        <time>2015-12-20T12:51:57Z</time>
      </trkpt>
      <trkpt lat="42.97999" lon="0.2662">
        <ele>1656.6</ele>
        <time>2015-12-20T12:52:07Z</time>
      </trkpt>
      <trkpt lat="42.97997" lon="0.26607">
        <ele>1654</ele>
        <time>2015-12-20T12:52:17Z</time>
      </trkpt>
      <trkpt lat="42.97999" lon="0.26594">
        <ele>1652.2</ele>
        <time>2015-12-20T12:52:29Z</time>
      </trkpt>
      <trkpt lat="42.97998" lon="0.26581">
        <ele>1650.2</ele>
        <time>2015-12-20T12:52:43Z</time>
      </trkpt>
      <trkpt lat="42.97994" lon="0.26557">
        <ele>1645.7</ele>
        <time>2015-12-20T12:53:07Z</time>
      </trkpt>
      <trkpt lat="42.97993" lon="0.26544">
        <ele>1643.3</ele>
        <time>2015-12-20T12:53:19Z</time>
      </trkpt>
      <trkpt lat="42.97994" lon="0.26531">
        <ele>1641</ele>
        <time>2015-12-20T12:53:31Z</time>
      </trkpt>
      <trkpt lat="42.97998" lon="0.26519">
        <ele>1639.1</ele>
        <time>2015-12-20T12:53:41Z</time>
      </trkpt>
      <trkpt lat="42.98001" lon="0.26507">
        <ele>1637.5</ele>
        <time>2015-12-20T12:53:51Z</time>
      </trkpt>
      <trkpt lat="42.98001" lon="0.26482">
        <ele>1633.3</ele>
        <time>2015-12-20T12:54:15Z</time>
      </trkpt>
      <trkpt lat="42.98" lon="0.2647">
        <ele>1629.9</ele>
        <time>2015-12-20T12:54:29Z</time>
      </trkpt>
      <trkpt lat="42.98" lon="0.26457">
        <ele>1627.5</ele>
        <time>2015-12-20T12:54:42Z</time>
      </trkpt>
      <trkpt lat="42.97996" lon="0.26445">
        <ele>1624.8</ele>
        <time>2015-12-20T12:55:01Z</time>
      </trkpt>
      <trkpt lat="42.98003" lon="0.26422">
        <ele>1623.7</ele>
        <time>2015-12-20T12:56:18Z</time>
      </trkpt>
      <trkpt lat="42.9801" lon="0.264">
        <ele>1621.5</ele>
        <time>2015-12-20T12:56:39Z</time>
      </trkpt>
      <trkpt lat="42.98012" lon="0.26388">
        <ele>1619.1</ele>
        <time>2015-12-20T12:56:48Z</time>
      </trkpt>
      <trkpt lat="42.98014" lon="0.26376">
        <ele>1619.7</ele>
        <time>2015-12-20T12:56:59Z</time>
      </trkpt>
      <trkpt lat="42.98017" lon="0.26364">
        <ele>1618.5</ele>
        <time>2015-12-20T12:57:10Z</time>
      </trkpt>
      <trkpt lat="42.98018" lon="0.26351">
        <ele>1616</ele>
        <time>2015-12-20T12:57:23Z</time>
      </trkpt>
      <trkpt lat="42.98022" lon="0.26324">
        <ele>1612.4</ele>
        <time>2015-12-20T12:57:44Z</time>
      </trkpt>
      <trkpt lat="42.98024" lon="0.26312">
        <ele>1613.4</ele>
        <time>2015-12-20T12:57:54Z</time>
      </trkpt>
      <trkpt lat="42.98025" lon="0.26298">
        <ele>1612.4</ele>
        <time>2015-12-20T12:58:03Z</time>
      </trkpt>
      <trkpt lat="42.98027" lon="0.26286">
        <ele>1611.8</ele>
        <time>2015-12-20T12:58:13Z</time>
      </trkpt>
      <trkpt lat="42.98025" lon="0.26274">
        <ele>1608.9</ele>
        <time>2015-12-20T12:58:25Z</time>
      </trkpt>
      <trkpt lat="42.98027" lon="0.26248">
        <ele>1605.9</ele>
        <time>2015-12-20T12:58:46Z</time>
      </trkpt>
      <trkpt lat="42.98026" lon="0.26235">
        <ele>1604</ele>
        <time>2015-12-20T12:58:57Z</time>
      </trkpt>
      <trkpt lat="42.98026" lon="0.26222">
        <ele>1600</ele>
        <time>2015-12-20T12:59:08Z</time>
      </trkpt>
      <trkpt lat="42.98025" lon="0.26209">
        <ele>1598.2</ele>
        <time>2015-12-20T12:59:20Z</time>
      </trkpt>
      <trkpt lat="42.98019" lon="0.26199">
        <ele>1596.5</ele>
        <time>2015-12-20T12:59:45Z</time>
      </trkpt>
      <trkpt lat="42.9801" lon="0.26164">
        <ele>1586.3</ele>
        <time>2015-12-20T13:16:29Z</time>
      </trkpt>
      <trkpt lat="42.98006" lon="0.26152">
        <ele>1583.7</ele>
        <time>2015-12-20T13:16:39Z</time>
      </trkpt>
      <trkpt lat="42.97997" lon="0.26149">
        <ele>1580.9</ele>
        <time>2015-12-20T13:17:06Z</time>
      </trkpt>
      <trkpt lat="42.97995" lon="0.26122">
        <ele>1578.2</ele>
        <time>2015-12-20T13:17:50Z</time>
      </trkpt>
      <trkpt lat="42.97994" lon="0.2611">
        <ele>1576.2</ele>
        <time>2015-12-20T13:18:00Z</time>
      </trkpt>
      <trkpt lat="42.97998" lon="0.26098">
        <ele>1571.9</ele>
        <time>2015-12-20T13:18:19Z</time>
      </trkpt>
      <trkpt lat="42.98012" lon="0.26082">
        <ele>1568.1</ele>
        <time>2015-12-20T13:18:50Z</time>
      </trkpt>
      <trkpt lat="42.98021" lon="0.2608">
        <ele>1569.5</ele>
        <time>2015-12-20T13:19:10Z</time>
      </trkpt>
      <trkpt lat="42.98029" lon="0.26073">
        <ele>1570.8</ele>
        <time>2015-12-20T13:19:23Z</time>
      </trkpt>
      <trkpt lat="42.9801" lon="0.26053">
        <ele>1560.9</ele>
        <time>2015-12-20T13:21:44Z</time>
      </trkpt>
      <trkpt lat="42.98002" lon="0.26042">
        <ele>1554.5</ele>
        <time>2015-12-20T13:22:43Z</time>
      </trkpt>
      <trkpt lat="42.97993" lon="0.26045">
        <ele>1552.1</ele>
        <time>2015-12-20T13:23:02Z</time>
      </trkpt>
      <trkpt lat="42.97979" lon="0.26059">
        <ele>1547</ele>
        <time>2015-12-20T13:23:39Z</time>
      </trkpt>
      <trkpt lat="42.97975" lon="0.2607">
        <ele>1545.2</ele>
        <time>2015-12-20T13:24:04Z</time>
      </trkpt>
      <trkpt lat="42.97963" lon="0.26088">
        <ele>1539.7</ele>
        <time>2015-12-20T13:24:38Z</time>
      </trkpt>
      <trkpt lat="42.97954" lon="0.26087">
        <ele>1536</ele>
        <time>2015-12-20T13:24:54Z</time>
      </trkpt>
      <trkpt lat="42.97952" lon="0.26075">
        <ele>1532.7</ele>
        <time>2015-12-20T13:25:19Z</time>
      </trkpt>
      <trkpt lat="42.97935" lon="0.26086">
        <ele>1525.4</ele>
        <time>2015-12-20T13:26:22Z</time>
      </trkpt>
      <trkpt lat="42.97923" lon="0.26102">
        <ele>1523.1</ele>
        <time>2015-12-20T13:30:47Z</time>
      </trkpt>
      <trkpt lat="42.97911" lon="0.26122">
        <ele>1521.2</ele>
        <time>2015-12-20T13:31:07Z</time>
      </trkpt>
      <trkpt lat="42.97907" lon="0.26133">
        <ele>1520.3</ele>
        <time>2015-12-20T13:31:17Z</time>
      </trkpt>
      <trkpt lat="42.97904" lon="0.26146">
        <ele>1520.1</ele>
        <time>2015-12-20T13:31:27Z</time>
      </trkpt>
      <trkpt lat="42.97902" lon="0.26159">
        <ele>1519.2</ele>
        <time>2015-12-20T13:31:38Z</time>
      </trkpt>
      <trkpt lat="42.979" lon="0.26171">
        <ele>1518.4</ele>
        <time>2015-12-20T13:31:48Z</time>
      </trkpt>
      <trkpt lat="42.97893" lon="0.26196">
        <ele>1517.7</ele>
        <time>2015-12-20T13:32:11Z</time>
      </trkpt>
      <trkpt lat="42.97891" lon="0.26207">
        <ele>1516.1</ele>
        <time>2015-12-20T13:32:35Z</time>
      </trkpt>
      <trkpt lat="42.97888" lon="0.2622">
        <ele>1515</ele>
        <time>2015-12-20T13:32:52Z</time>
      </trkpt>
      <trkpt lat="42.9788" lon="0.26243">
        <ele>1513.9</ele>
        <time>2015-12-20T13:33:11Z</time>
      </trkpt>
      <trkpt lat="42.97875" lon="0.26254">
        <ele>1512.8</ele>
        <time>2015-12-20T13:33:20Z</time>
      </trkpt>
      <trkpt lat="42.9787" lon="0.26265">
        <ele>1512</ele>
        <time>2015-12-20T13:33:31Z</time>
      </trkpt>
      <trkpt lat="42.97865" lon="0.26275">
        <ele>1512.3</ele>
        <time>2015-12-20T13:33:42Z</time>
      </trkpt>
      <trkpt lat="42.97857" lon="0.26271">
        <ele>1509.3</ele>
        <time>2015-12-20T13:34:04Z</time>
      </trkpt>
      <trkpt lat="42.97839" lon="0.26275">
        <ele>1500</ele>
        <time>2015-12-20T13:34:43Z</time>
      </trkpt>
      <trkpt lat="42.97832" lon="0.26286">
        <ele>1497.8</ele>
        <time>2015-12-20T13:34:55Z</time>
      </trkpt>
      <trkpt lat="42.97826" lon="0.26295">
        <ele>1495.7</ele>
        <time>2015-12-20T13:35:08Z</time>
      </trkpt>
      <trkpt lat="42.97812" lon="0.26313">
        <ele>1492.9</ele>
        <time>2015-12-20T13:35:32Z</time>
      </trkpt>
      <trkpt lat="42.97805" lon="0.26321">
        <ele>1489.8</ele>
        <time>2015-12-20T13:35:49Z</time>
      </trkpt>
      <trkpt lat="42.97801" lon="0.26332">
        <ele>1486.5</ele>
        <time>2015-12-20T13:36:04Z</time>
      </trkpt>
      <trkpt lat="42.97793" lon="0.26339">
        <ele>1484.4</ele>
        <time>2015-12-20T13:36:16Z</time>
      </trkpt>
      <trkpt lat="42.97779" lon="0.26356">
        <ele>1483.5</ele>
        <time>2015-12-20T13:36:35Z</time>
      </trkpt>
      <trkpt lat="42.97774" lon="0.26367">
        <ele>1482.2</ele>
        <time>2015-12-20T13:36:46Z</time>
      </trkpt>
      <trkpt lat="42.97769" lon="0.26378">
        <ele>1481</ele>
        <time>2015-12-20T13:36:59Z</time>
      </trkpt>
      <trkpt lat="42.97765" lon="0.26389">
        <ele>1479.1</ele>
        <time>2015-12-20T13:37:10Z</time>
      </trkpt>
      <trkpt lat="42.97758" lon="0.26397">
        <ele>1477.6</ele>
        <time>2015-12-20T13:37:20Z</time>
      </trkpt>
      <trkpt lat="42.9774" lon="0.26404">
        <ele>1474.5</ele>
        <time>2015-12-20T13:37:55Z</time>
      </trkpt>
      <trkpt lat="42.97731" lon="0.26401">
        <ele>1473.8</ele>
        <time>2015-12-20T13:38:03Z</time>
      </trkpt>
      <trkpt lat="42.97722" lon="0.26399">
        <ele>1473.1</ele>
        <time>2015-12-20T13:38:13Z</time>
      </trkpt>
      <trkpt lat="42.97713" lon="0.26393">
        <ele>1472</ele>
        <time>2015-12-20T13:38:24Z</time>
      </trkpt>
      <trkpt lat="42.97696" lon="0.26382">
        <ele>1468.9</ele>
        <time>2015-12-20T13:38:45Z</time>
      </trkpt>
      <trkpt lat="42.97686" lon="0.26379">
        <ele>1467.9</ele>
        <time>2015-12-20T13:38:58Z</time>
      </trkpt>
      <trkpt lat="42.97679" lon="0.26373">
        <ele>1466.1</ele>
        <time>2015-12-20T13:39:08Z</time>
      </trkpt>
      <trkpt lat="42.9767" lon="0.26367">
        <ele>1464.9</ele>
        <time>2015-12-20T13:39:18Z</time>
      </trkpt>
      <trkpt lat="42.97662" lon="0.26362">
        <ele>1463.8</ele>
        <time>2015-12-20T13:39:27Z</time>
      </trkpt>
      <trkpt lat="42.97644" lon="0.26355">
        <ele>1461</ele>
        <time>2015-12-20T13:39:48Z</time>
      </trkpt>
      <trkpt lat="42.97636" lon="0.26348">
        <ele>1458</ele>
        <time>2015-12-20T13:40:00Z</time>
      </trkpt>
      <trkpt lat="42.97628" lon="0.26342">
        <ele>1455.6</ele>
        <time>2015-12-20T13:40:12Z</time>
      </trkpt>
      <trkpt lat="42.97619" lon="0.26339">
        <ele>1453.9</ele>
        <time>2015-12-20T13:40:22Z</time>
      </trkpt>
      <trkpt lat="42.9761" lon="0.26335">
        <ele>1452.4</ele>
        <time>2015-12-20T13:40:31Z</time>
      </trkpt>
      <trkpt lat="42.97591" lon="0.26329">
        <ele>1448.7</ele>
        <time>2015-12-20T13:40:52Z</time>
      </trkpt>
      <trkpt lat="42.97581" lon="0.26326">
        <ele>1446.7</ele>
        <time>2015-12-20T13:41:03Z</time>
      </trkpt>
      <trkpt lat="42.97572" lon="0.26322">
        <ele>1445.4</ele>
        <time>2015-12-20T13:41:14Z</time>
      </trkpt>
      <trkpt lat="42.97564" lon="0.26318">
        <ele>1442.5</ele>
        <time>2015-12-20T13:41:28Z</time>
      </trkpt>
      <trkpt lat="42.97554" lon="0.26318">
        <ele>1440.4</ele>
        <time>2015-12-20T13:41:38Z</time>
      </trkpt>
      <trkpt lat="42.97537" lon="0.26311">
        <ele>1435.5</ele>
        <time>2015-12-20T13:42:02Z</time>
      </trkpt>
      <trkpt lat="42.97528" lon="0.26307">
        <ele>1432.1</ele>
        <time>2015-12-20T13:42:16Z</time>
      </trkpt>
      <trkpt lat="42.97519" lon="0.26305">
        <ele>1430.2</ele>
        <time>2015-12-20T13:42:26Z</time>
      </trkpt>
      <trkpt lat="42.97509" lon="0.26303">
        <ele>1428.2</ele>
        <time>2015-12-20T13:42:37Z</time>
      </trkpt>
      <trkpt lat="42.975" lon="0.26301">
        <ele>1425.6</ele>
        <time>2015-12-20T13:42:51Z</time>
      </trkpt>
      <trkpt lat="42.97483" lon="0.26294">
        <ele>1419.9</ele>
        <time>2015-12-20T13:43:20Z</time>
      </trkpt>
      <trkpt lat="42.97474" lon="0.26291">
        <ele>1417.5</ele>
        <time>2015-12-20T13:43:34Z</time>
      </trkpt>
      <trkpt lat="42.97465" lon="0.26295">
        <ele>1416</ele>
        <time>2015-12-20T13:43:47Z</time>
      </trkpt>
      <trkpt lat="42.97455" lon="0.26295">
        <ele>1415.3</ele>
        <time>2015-12-20T13:43:59Z</time>
      </trkpt>
      <trkpt lat="42.97436" lon="0.26297">
        <ele>1413.3</ele>
        <time>2015-12-20T13:44:22Z</time>
      </trkpt>
      <trkpt lat="42.97427" lon="0.26297">
        <ele>1410.9</ele>
        <time>2015-12-20T13:44:34Z</time>
      </trkpt>
      <trkpt lat="42.97417" lon="0.263">
        <ele>1410.1</ele>
        <time>2015-12-20T13:44:44Z</time>
      </trkpt>
      <trkpt lat="42.97408" lon="0.26303">
        <ele>1408.7</ele>
        <time>2015-12-20T13:44:54Z</time>
      </trkpt>
      <trkpt lat="42.97399" lon="0.26305">
        <ele>1407.2</ele>
        <time>2015-12-20T13:45:05Z</time>
      </trkpt>
      <trkpt lat="42.9738" lon="0.26308">
        <ele>1405.2</ele>
        <time>2015-12-20T13:45:27Z</time>
      </trkpt>
      <trkpt lat="42.97372" lon="0.26305">
        <ele>1402.7</ele>
        <time>2015-12-20T13:47:26Z</time>
      </trkpt>
      <trkpt lat="42.97353" lon="0.26302">
        <ele>1398.1</ele>
        <time>2015-12-20T13:48:10Z</time>
      </trkpt>
      <trkpt lat="42.97344" lon="0.26304">
        <ele>1395.8</ele>
        <time>2015-12-20T13:48:20Z</time>
      </trkpt>
      <trkpt lat="42.97334" lon="0.26308">
        <ele>1394.1</ele>
        <time>2015-12-20T13:48:29Z</time>
      </trkpt>
      <trkpt lat="42.97316" lon="0.26309">
        <ele>1389.1</ele>
        <time>2015-12-20T13:48:49Z</time>
      </trkpt>
      <trkpt lat="42.97306" lon="0.26309">
        <ele>1386.8</ele>
        <time>2015-12-20T13:49:01Z</time>
      </trkpt>
      <trkpt lat="42.97297" lon="0.26304">
        <ele>1384</ele>
        <time>2015-12-20T13:49:11Z</time>
      </trkpt>
      <trkpt lat="42.97288" lon="0.26303">
        <ele>1381.3</ele>
        <time>2015-12-20T13:49:21Z</time>
      </trkpt>
      <trkpt lat="42.97279" lon="0.26304">
        <ele>1379.4</ele>
        <time>2015-12-20T13:49:33Z</time>
      </trkpt>
      <trkpt lat="42.97262" lon="0.26303">
        <ele>1374.5</ele>
        <time>2015-12-20T13:49:55Z</time>
      </trkpt>
      <trkpt lat="42.97253" lon="0.26304">
        <ele>1372.4</ele>
        <time>2015-12-20T13:50:05Z</time>
      </trkpt>
      <trkpt lat="42.97243" lon="0.26305">
        <ele>1369.3</ele>
        <time>2015-12-20T13:50:19Z</time>
      </trkpt>
      <trkpt lat="42.97234" lon="0.26301">
        <ele>1365.9</ele>
        <time>2015-12-20T13:50:32Z</time>
      </trkpt>
      <trkpt lat="42.97224" lon="0.263">
        <ele>1362.8</ele>
        <time>2015-12-20T13:50:46Z</time>
      </trkpt>
      <trkpt lat="42.97206" lon="0.26296">
        <ele>1358.2</ele>
        <time>2015-12-20T13:51:08Z</time>
      </trkpt>
      <trkpt lat="42.97197" lon="0.26294">
        <ele>1355.7</ele>
        <time>2015-12-20T13:51:19Z</time>
      </trkpt>
      <trkpt lat="42.97188" lon="0.26292">
        <ele>1352.7</ele>
        <time>2015-12-20T13:51:29Z</time>
      </trkpt>
      <trkpt lat="42.97178" lon="0.26291">
        <ele>1348.8</ele>
        <time>2015-12-20T13:51:43Z</time>
      </trkpt>
      <trkpt lat="42.97169" lon="0.26289">
        <ele>1346.8</ele>
        <time>2015-12-20T13:51:55Z</time>
      </trkpt>
      <trkpt lat="42.9715" lon="0.26291">
        <ele>1341.4</ele>
        <time>2015-12-20T13:52:17Z</time>
      </trkpt>
      <trkpt lat="42.97141" lon="0.26294">
        <ele>1339</ele>
        <time>2015-12-20T13:52:27Z</time>
      </trkpt>
      <trkpt lat="42.97133" lon="0.263">
        <ele>1337.1</ele>
        <time>2015-12-20T13:52:38Z</time>
      </trkpt>
      <trkpt lat="42.97125" lon="0.26307">
        <ele>1334.4</ele>
        <time>2015-12-20T13:52:49Z</time>
      </trkpt>
      <trkpt lat="42.97118" lon="0.26316">
        <ele>1332</ele>
        <time>2015-12-20T13:53:00Z</time>
      </trkpt>
      <trkpt lat="42.97105" lon="0.26335">
        <ele>1327.7</ele>
        <time>2015-12-20T13:53:21Z</time>
      </trkpt>
      <trkpt lat="42.97097" lon="0.26342">
        <ele>1326</ele>
        <time>2015-12-20T13:53:31Z</time>
      </trkpt>
      <trkpt lat="42.97088" lon="0.26347">
        <ele>1323.8</ele>
        <time>2015-12-20T13:53:41Z</time>
      </trkpt>
      <trkpt lat="42.97078" lon="0.26348">
        <ele>1321.8</ele>
        <time>2015-12-20T13:53:52Z</time>
      </trkpt>
      <trkpt lat="42.97069" lon="0.26347">
        <ele>1319.7</ele>
        <time>2015-12-20T13:54:02Z</time>
      </trkpt>
      <trkpt lat="42.97051" lon="0.26344">
        <ele>1316.5</ele>
        <time>2015-12-20T13:54:23Z</time>
      </trkpt>
      <trkpt lat="42.97041" lon="0.26343">
        <ele>1314.2</ele>
        <time>2015-12-20T13:54:34Z</time>
      </trkpt>
      <trkpt lat="42.97032" lon="0.2634">
        <ele>1312.6</ele>
        <time>2015-12-20T13:54:44Z</time>
      </trkpt>
      <trkpt lat="42.97023" lon="0.26336">
        <ele>1311</ele>
        <time>2015-12-20T13:54:54Z</time>
      </trkpt>
      <trkpt lat="42.97014" lon="0.26332">
        <ele>1309.2</ele>
        <time>2015-12-20T13:55:05Z</time>
      </trkpt>
      <trkpt lat="42.96998" lon="0.26319">
        <ele>1306.1</ele>
        <time>2015-12-20T13:55:33Z</time>
      </trkpt>
      <trkpt lat="42.96989" lon="0.26312">
        <ele>1304.1</ele>
        <time>2015-12-20T13:55:43Z</time>
      </trkpt>
      <trkpt lat="42.96981" lon="0.26307">
        <ele>1302.3</ele>
        <time>2015-12-20T13:55:52Z</time>
      </trkpt>
      <trkpt lat="42.96973" lon="0.26301">
        <ele>1300.2</ele>
        <time>2015-12-20T13:56:02Z</time>
      </trkpt>
      <trkpt lat="42.96966" lon="0.26293">
        <ele>1298.3</ele>
        <time>2015-12-20T13:56:12Z</time>
      </trkpt>
      <trkpt lat="42.9695" lon="0.26279">
        <ele>1294</ele>
        <time>2015-12-20T13:56:32Z</time>
      </trkpt>
      <trkpt lat="42.96941" lon="0.26271">
        <ele>1291.9</ele>
        <time>2015-12-20T13:56:42Z</time>
      </trkpt>
      <trkpt lat="42.96932" lon="0.26265">
        <ele>1289.7</ele>
        <time>2015-12-20T13:56:52Z</time>
      </trkpt>
      <trkpt lat="42.96924" lon="0.26259">
        <ele>1287.9</ele>
        <time>2015-12-20T13:57:01Z</time>
      </trkpt>
      <trkpt lat="42.96916" lon="0.26251">
        <ele>1286.7</ele>
        <time>2015-12-20T13:57:10Z</time>
      </trkpt>
      <trkpt lat="42.96907" lon="0.26246">
        <ele>1285.6</ele>
        <time>2015-12-20T13:57:18Z</time>
      </trkpt>
      <trkpt lat="42.9689" lon="0.26237">
        <ele>1282.7</ele>
        <time>2015-12-20T13:57:35Z</time>
      </trkpt>
      <trkpt lat="42.96881" lon="0.26233">
        <ele>1281.6</ele>
        <time>2015-12-20T13:57:45Z</time>
      </trkpt>
      <trkpt lat="42.96872" lon="0.26228">
        <ele>1281.2</ele>
        <time>2015-12-20T13:57:56Z</time>
      </trkpt>
      <trkpt lat="42.96863" lon="0.26224">
        <ele>1279.3</ele>
        <time>2015-12-20T13:58:17Z</time>
      </trkpt>
      <trkpt lat="42.96867" lon="0.26212">
        <ele>1273</ele>
        <time>2015-12-20T14:06:02Z</time>
      </trkpt>
      <trkpt lat="42.96872" lon="0.26188">
        <ele>1273.9</ele>
        <time>2015-12-20T14:06:21Z</time>
      </trkpt>
      <trkpt lat="42.96875" lon="0.26176">
        <ele>1274.7</ele>
        <time>2015-12-20T14:06:30Z</time>
      </trkpt>
      <trkpt lat="42.96878" lon="0.26163">
        <ele>1274.9</ele>
        <time>2015-12-20T14:06:39Z</time>
      </trkpt>
      <trkpt lat="42.9688" lon="0.2615">
        <ele>1275.2</ele>
        <time>2015-12-20T14:06:48Z</time>
      </trkpt>
      <trkpt lat="42.96882" lon="0.26137">
        <ele>1275.5</ele>
        <time>2015-12-20T14:06:57Z</time>
      </trkpt>
      <trkpt lat="42.96883" lon="0.26124">
        <ele>1275.6</ele>
        <time>2015-12-20T14:07:06Z</time>
      </trkpt>
      <trkpt lat="42.96887" lon="0.26099">
        <ele>1274.9</ele>
        <time>2015-12-20T14:07:23Z</time>
      </trkpt>
      <trkpt lat="42.96888" lon="0.26086">
        <ele>1274.4</ele>
        <time>2015-12-20T14:07:32Z</time>
      </trkpt>
      <trkpt lat="42.96893" lon="0.26074">
        <ele>1273.3</ele>
        <time>2015-12-20T14:07:42Z</time>
      </trkpt>
      <trkpt lat="42.96897" lon="0.26062">
        <ele>1271.7</ele>
        <time>2015-12-20T14:07:51Z</time>
      </trkpt>
      <trkpt lat="42.96901" lon="0.2605">
        <ele>1270.6</ele>
        <time>2015-12-20T14:07:59Z</time>
      </trkpt>
      <trkpt lat="42.96906" lon="0.26039">
        <ele>1268.3</ele>
        <time>2015-12-20T14:08:09Z</time>
      </trkpt>
      <trkpt lat="42.96914" lon="0.26017">
        <ele>1265.4</ele>
        <time>2015-12-20T14:08:27Z</time>
      </trkpt>
      <trkpt lat="42.96919" lon="0.26006">
        <ele>1263.7</ele>
        <time>2015-12-20T14:08:36Z</time>
      </trkpt>
      <trkpt lat="42.96924" lon="0.25995">
        <ele>1261.9</ele>
        <time>2015-12-20T14:08:46Z</time>
      </trkpt>
      <trkpt lat="42.96929" lon="0.25985">
        <ele>1259.7</ele>
        <time>2015-12-20T14:08:55Z</time>
      </trkpt>
      <trkpt lat="42.96934" lon="0.25974">
        <ele>1257.7</ele>
        <time>2015-12-20T14:09:04Z</time>
      </trkpt>
      <trkpt lat="42.9694" lon="0.25963">
        <ele>1255</ele>
        <time>2015-12-20T14:09:14Z</time>
      </trkpt>
      <trkpt lat="42.96955" lon="0.25947">
        <ele>1251</ele>
        <time>2015-12-20T14:09:34Z</time>
      </trkpt>
      <trkpt lat="42.96958" lon="0.25935">
        <ele>1248.8</ele>
        <time>2015-12-20T14:09:56Z</time>
      </trkpt>
      <trkpt lat="42.96962" lon="0.25922">
        <ele>1246.3</ele>
        <time>2015-12-20T14:10:05Z</time>
      </trkpt>
      <trkpt lat="42.96964" lon="0.2591">
        <ele>1243.9</ele>
        <time>2015-12-20T14:10:16Z</time>
      </trkpt>
      <trkpt lat="42.96966" lon="0.25886">
        <ele>1238.9</ele>
        <time>2015-12-20T14:11:02Z</time>
      </trkpt>
      <trkpt lat="42.96966" lon="0.25873">
        <ele>1235.1</ele>
        <time>2015-12-20T14:12:58Z</time>
      </trkpt>
      <trkpt lat="42.96973" lon="0.25849">
        <ele>1230</ele>
        <time>2015-12-20T14:13:17Z</time>
      </trkpt>
      <trkpt lat="42.96976" lon="0.25836">
        <ele>1227.8</ele>
        <time>2015-12-20T14:13:26Z</time>
      </trkpt>
      <trkpt lat="42.96976" lon="0.25823">
        <ele>1226</ele>
        <time>2015-12-20T14:13:34Z</time>
      </trkpt>
      <trkpt lat="42.9698" lon="0.25812">
        <ele>1222.5</ele>
        <time>2015-12-20T14:13:55Z</time>
      </trkpt>
      <trkpt lat="42.96985" lon="0.25801">
        <ele>1220.8</ele>
        <time>2015-12-20T14:14:01Z</time>
      </trkpt>
      <trkpt lat="42.96991" lon="0.25777">
        <ele>1216.1</ele>
        <time>2015-12-20T14:14:17Z</time>
      </trkpt>
      <trkpt lat="42.96996" lon="0.25766">
        <ele>1213</ele>
        <time>2015-12-20T14:14:30Z</time>
      </trkpt>
      <trkpt lat="42.96999" lon="0.25754">
        <ele>1211.2</ele>
        <time>2015-12-20T14:14:40Z</time>
      </trkpt>
      <trkpt lat="42.97002" lon="0.25742">
        <ele>1209</ele>
        <time>2015-12-20T14:14:49Z</time>
      </trkpt>
      <trkpt lat="42.97007" lon="0.25731">
        <ele>1206.6</ele>
        <time>2015-12-20T14:14:58Z</time>
      </trkpt>
      <trkpt lat="42.97011" lon="0.25719">
        <ele>1204.6</ele>
        <time>2015-12-20T14:15:08Z</time>
      </trkpt>
      <trkpt lat="42.97019" lon="0.25696">
        <ele>1200</ele>
        <time>2015-12-20T14:15:28Z</time>
      </trkpt>
      <trkpt lat="42.97022" lon="0.25684">
        <ele>1197.8</ele>
        <time>2015-12-20T14:15:38Z</time>
      </trkpt>
      <trkpt lat="42.97026" lon="0.25672">
        <ele>1194.8</ele>
        <time>2015-12-20T14:15:47Z</time>
      </trkpt>
      <trkpt lat="42.97031" lon="0.2566">
        <ele>1191.9</ele>
        <time>2015-12-20T14:15:59Z</time>
      </trkpt>
      <trkpt lat="42.97033" lon="0.25648">
        <ele>1190.2</ele>
        <time>2015-12-20T14:16:08Z</time>
      </trkpt>
      <trkpt lat="42.97039" lon="0.25638">
        <ele>1186.6</ele>
        <time>2015-12-20T14:16:37Z</time>
      </trkpt>
      <trkpt lat="42.97045" lon="0.25612">
        <ele>1182</ele>
        <time>2015-12-20T14:17:00Z</time>
      </trkpt>
      <trkpt lat="42.9705" lon="0.25602">
        <ele>1179.2</ele>
        <time>2015-12-20T14:17:13Z</time>
      </trkpt>
      <trkpt lat="42.97051" lon="0.25589">
        <ele>1176.3</ele>
        <time>2015-12-20T14:17:25Z</time>
      </trkpt>
      <trkpt lat="42.97054" lon="0.25578">
        <ele>1173</ele>
        <time>2015-12-20T14:17:37Z</time>
      </trkpt>
      <trkpt lat="42.97057" lon="0.25565">
        <ele>1169.9</ele>
        <time>2015-12-20T14:17:48Z</time>
      </trkpt>
      <trkpt lat="42.97065" lon="0.25542">
        <ele>1162.4</ele>
        <time>2015-12-20T14:18:20Z</time>
      </trkpt>
      <trkpt lat="42.97068" lon="0.25529">
        <ele>1158.9</ele>
        <time>2015-12-20T14:18:54Z</time>
      </trkpt>
      <trkpt lat="42.97083" lon="0.25522">
        <ele>1152</ele>
        <time>2015-12-20T14:19:57Z</time>
      </trkpt>
      <trkpt lat="42.9709" lon="0.25487">
        <ele>1147.1</ele>
        <time>2015-12-20T14:21:50Z</time>
      </trkpt>
      <trkpt lat="42.97085" lon="0.25476">
        <ele>1146.5</ele>
        <time>2015-12-20T14:22:01Z</time>
      </trkpt>
      <trkpt lat="42.97082" lon="0.25463">
        <ele>1145.1</ele>
        <time>2015-12-20T14:22:13Z</time>
      </trkpt>
      <trkpt lat="42.97081" lon="0.2545">
        <ele>1142.9</ele>
        <time>2015-12-20T14:22:29Z</time>
      </trkpt>
      <trkpt lat="42.97083" lon="0.25425">
        <ele>1137.8</ele>
        <time>2015-12-20T14:23:04Z</time>
      </trkpt>
      <trkpt lat="42.97087" lon="0.25413">
        <ele>1136.1</ele>
        <time>2015-12-20T14:23:15Z</time>
      </trkpt>
      <trkpt lat="42.97091" lon="0.25399">
        <ele>1135</ele>
        <time>2015-12-20T14:23:29Z</time>
      </trkpt>
      <trkpt lat="42.97089" lon="0.25386">
        <ele>1134.2</ele>
        <time>2015-12-20T14:23:40Z</time>
      </trkpt>
      <trkpt lat="42.97095" lon="0.25361">
        <ele>1132.1</ele>
        <time>2015-12-20T14:24:07Z</time>
      </trkpt>
      <trkpt lat="42.97097" lon="0.25348">
        <ele>1130.7</ele>
        <time>2015-12-20T14:24:17Z</time>
      </trkpt>
      <trkpt lat="42.971" lon="0.25336">
        <ele>1130.6</ele>
        <time>2015-12-20T14:24:27Z</time>
      </trkpt>
      <trkpt lat="42.97103" lon="0.25323">
        <ele>1130</ele>
        <time>2015-12-20T14:24:35Z</time>
      </trkpt>
      <trkpt lat="42.97105" lon="0.25311">
        <ele>1129.9</ele>
        <time>2015-12-20T14:24:44Z</time>
      </trkpt>
      <trkpt lat="42.97099" lon="0.25287">
        <ele>1130.2</ele>
        <time>2015-12-20T14:25:07Z</time>
      </trkpt>
      <trkpt lat="42.97101" lon="0.25274">
        <ele>1129.2</ele>
        <time>2015-12-20T14:25:18Z</time>
      </trkpt>
      <trkpt lat="42.97102" lon="0.25262">
        <ele>1127.7</ele>
        <time>2015-12-20T14:25:27Z</time>
      </trkpt>
      <trkpt lat="42.97101" lon="0.25249">
        <ele>1124.9</ele>
        <time>2015-12-20T14:25:38Z</time>
      </trkpt>
      <trkpt lat="42.97099" lon="0.25236">
        <ele>1122.5</ele>
        <time>2015-12-20T14:25:48Z</time>
      </trkpt>
      <trkpt lat="42.97102" lon="0.25211">
        <ele>1119.5</ele>
        <time>2015-12-20T14:26:07Z</time>
      </trkpt>
      <trkpt lat="42.97105" lon="0.25199">
        <ele>1117.1</ele>
        <time>2015-12-20T14:26:18Z</time>
      </trkpt>
      <trkpt lat="42.9711" lon="0.25188">
        <ele>1114</ele>
        <time>2015-12-20T14:26:30Z</time>
      </trkpt>
      <trkpt lat="42.97114" lon="0.25177">
        <ele>1112.8</ele>
        <time>2015-12-20T14:26:39Z</time>
      </trkpt>
      <trkpt lat="42.97119" lon="0.25166">
        <ele>1112.3</ele>
        <time>2015-12-20T14:26:46Z</time>
      </trkpt>
      <trkpt lat="42.9712" lon="0.25153">
        <ele>1111.8</ele>
        <time>2015-12-20T14:26:55Z</time>
      </trkpt>
      <trkpt lat="42.97129" lon="0.2513">
        <ele>1109.4</ele>
        <time>2015-12-20T14:27:38Z</time>
      </trkpt>
      <trkpt lat="42.97135" lon="0.25121">
        <ele>1106.7</ele>
        <time>2015-12-20T14:27:50Z</time>
      </trkpt>
      <trkpt lat="42.9714" lon="0.25109">
        <ele>1103.4</ele>
        <time>2015-12-20T14:28:30Z</time>
      </trkpt>
      <trkpt lat="42.9715" lon="0.25087">
        <ele>1097.6</ele>
        <time>2015-12-20T14:28:54Z</time>
      </trkpt>
      <trkpt lat="42.97156" lon="0.25073">
        <ele>1094</ele>
        <time>2015-12-20T14:29:08Z</time>
      </trkpt>
      <trkpt lat="42.9716" lon="0.25061">
        <ele>1091.5</ele>
        <time>2015-12-20T14:29:17Z</time>
      </trkpt>
      <trkpt lat="42.97167" lon="0.25052">
        <ele>1087.1</ele>
        <time>2015-12-20T14:29:36Z</time>
      </trkpt>
      <trkpt lat="42.97184" lon="0.25045">
        <ele>1080.7</ele>
        <time>2015-12-20T14:30:05Z</time>
      </trkpt>
      <trkpt lat="42.97192" lon="0.25038">
        <ele>1078.5</ele>
        <time>2015-12-20T14:30:16Z</time>
      </trkpt>
      <trkpt lat="42.972" lon="0.25031">
        <ele>1076.6</ele>
        <time>2015-12-20T14:30:24Z</time>
      </trkpt>
      <trkpt lat="42.97206" lon="0.25021">
        <ele>1074.4</ele>
        <time>2015-12-20T14:30:36Z</time>
      </trkpt>
      <trkpt lat="42.97214" lon="0.25015">
        <ele>1072.4</ele>
        <time>2015-12-20T14:30:48Z</time>
      </trkpt>
      <trkpt lat="42.97225" lon="0.24994">
        <ele>1067.9</ele>
        <time>2015-12-20T14:31:14Z</time>
      </trkpt>
      <trkpt lat="42.97231" lon="0.24983">
        <ele>1065.7</ele>
        <time>2015-12-20T14:31:28Z</time>
      </trkpt>
      <trkpt lat="42.97232" lon="0.2497">
        <ele>1061.2</ele>
        <time>2015-12-20T14:31:46Z</time>
      </trkpt>
      <trkpt lat="42.97237" lon="0.24955">
        <ele>1059.7</ele>
        <time>2015-12-20T14:31:53Z</time>
      </trkpt>
      <trkpt lat="42.9724" lon="0.2493">
        <ele>1053.9</ele>
        <time>2015-12-20T14:32:19Z</time>
      </trkpt>
      <trkpt lat="42.97243" lon="0.24918">
        <ele>1051.9</ele>
        <time>2015-12-20T14:32:27Z</time>
      </trkpt>
      <trkpt lat="42.97247" lon="0.24907">
        <ele>1049.6</ele>
        <time>2015-12-20T14:32:38Z</time>
      </trkpt>
      <trkpt lat="42.97249" lon="0.24894">
        <ele>1047.6</ele>
        <time>2015-12-20T14:32:48Z</time>
      </trkpt>
      <trkpt lat="42.97254" lon="0.24883">
        <ele>1045.9</ele>
        <time>2015-12-20T14:32:58Z</time>
      </trkpt>
      <trkpt lat="42.97259" lon="0.24858">
        <ele>1040.7</ele>
        <time>2015-12-20T14:33:20Z</time>
      </trkpt>
      <trkpt lat="42.97261" lon="0.24845">
        <ele>1039.3</ele>
        <time>2015-12-20T14:33:29Z</time>
      </trkpt>
      <trkpt lat="42.97265" lon="0.24834">
        <ele>1037.4</ele>
        <time>2015-12-20T14:33:39Z</time>
      </trkpt>
      <trkpt lat="42.97267" lon="0.24822">
        <ele>1035.3</ele>
        <time>2015-12-20T14:33:48Z</time>
      </trkpt>
      <trkpt lat="42.97269" lon="0.2481">
        <ele>1033.2</ele>
        <time>2015-12-20T14:33:58Z</time>
      </trkpt>
      <trkpt lat="42.97271" lon="0.24797">
        <ele>1031.4</ele>
        <time>2015-12-20T14:34:10Z</time>
      </trkpt>
      <trkpt lat="42.97277" lon="0.24773">
        <ele>1027.4</ele>
        <time>2015-12-20T14:34:29Z</time>
      </trkpt>
      <trkpt lat="42.97281" lon="0.2476">
        <ele>1025.4</ele>
        <time>2015-12-20T14:34:38Z</time>
      </trkpt>
      <trkpt lat="42.97284" lon="0.24748">
        <ele>1021.6</ele>
        <time>2015-12-20T14:34:56Z</time>
      </trkpt>
      <trkpt lat="42.97286" lon="0.24735">
        <ele>1019.1</ele>
        <time>2015-12-20T14:35:08Z</time>
      </trkpt>
      <trkpt lat="42.97289" lon="0.24723">
        <ele>1016.9</ele>
        <time>2015-12-20T14:35:19Z</time>
      </trkpt>
      <trkpt lat="42.97296" lon="0.24699">
        <ele>1011.4</ele>
        <time>2015-12-20T14:35:47Z</time>
      </trkpt>
      <trkpt lat="42.973" lon="0.24687">
        <ele>1007.8</ele>
        <time>2015-12-20T14:36:07Z</time>
      </trkpt>
      <trkpt lat="42.97304" lon="0.24675">
        <ele>1006.7</ele>
        <time>2015-12-20T14:36:19Z</time>
      </trkpt>
      <trkpt lat="42.97304" lon="0.24662">
        <ele>1004</ele>
        <time>2015-12-20T14:36:35Z</time>
      </trkpt>
      <trkpt lat="42.97313" lon="0.24639">
        <ele>998.5</ele>
        <time>2015-12-20T14:37:02Z</time>
      </trkpt>
      <trkpt lat="42.97317" lon="0.24625">
        <ele>996.7</ele>
        <time>2015-12-20T14:37:12Z</time>
      </trkpt>
      <trkpt lat="42.97319" lon="0.24612">
        <ele>994.6</ele>
        <time>2015-12-20T14:37:23Z</time>
      </trkpt>
      <trkpt lat="42.97322" lon="0.24599">
        <ele>992.1</ele>
        <time>2015-12-20T14:37:36Z</time>
      </trkpt>
      <trkpt lat="42.97328" lon="0.24572">
        <ele>986.7</ele>
        <time>2015-12-20T14:38:01Z</time>
      </trkpt>
      <trkpt lat="42.97329" lon="0.24559">
        <ele>982.9</ele>
        <time>2015-12-20T14:38:14Z</time>
      </trkpt>
      <trkpt lat="42.97331" lon="0.24547">
        <ele>980.5</ele>
        <time>2015-12-20T14:38:24Z</time>
      </trkpt>
      <trkpt lat="42.97336" lon="0.24535">
        <ele>977.1</ele>
        <time>2015-12-20T14:38:39Z</time>
      </trkpt>
      <trkpt lat="42.97337" lon="0.24509">
        <ele>974.9</ele>
        <time>2015-12-20T14:38:55Z</time>
      </trkpt>
      <trkpt lat="42.97335" lon="0.24497">
        <ele>973.5</ele>
        <time>2015-12-20T14:39:05Z</time>
      </trkpt>
      <trkpt lat="42.97339" lon="0.24486">
        <ele>971</ele>
        <time>2015-12-20T14:39:21Z</time>
      </trkpt>
      <trkpt lat="42.97344" lon="0.24476">
        <ele>884.7</ele>
        <time>2015-12-20T14:39:50Z</time>
      </trkpt>
      <trkpt lat="42.97354" lon="0.24455">
        <ele>963</ele>
        <time>2015-12-20T14:40:15Z</time>
      </trkpt>
      <trkpt lat="42.97361" lon="0.24446">
        <ele>959.8</ele>
        <time>2015-12-20T14:40:30Z</time>
      </trkpt>
      <trkpt lat="42.97367" lon="0.24437">
        <ele>956.3</ele>
        <time>2015-12-20T14:40:47Z</time>
      </trkpt>
      <trkpt lat="42.97376" lon="0.24433">
        <ele>954.3</ele>
        <time>2015-12-20T14:40:59Z</time>
      </trkpt>
      <trkpt lat="42.97395" lon="0.24432">
        <ele>949.4</ele>
        <time>2015-12-20T14:41:22Z</time>
      </trkpt>
      <trkpt lat="42.97404" lon="0.24434">
        <ele>945.6</ele>
        <time>2015-12-20T14:41:38Z</time>
      </trkpt>
      <trkpt lat="42.97413" lon="0.24431">
        <ele>943.5</ele>
        <time>2015-12-20T14:41:50Z</time>
      </trkpt>
      <trkpt lat="42.97422" lon="0.2443">
        <ele>940.1</ele>
        <time>2015-12-20T14:42:05Z</time>
      </trkpt>
      <trkpt lat="42.97441" lon="0.24428">
        <ele>934.2</ele>
        <time>2015-12-20T14:42:35Z</time>
      </trkpt>
      <trkpt lat="42.97449" lon="0.24434">
        <ele>931.4</ele>
        <time>2015-12-20T14:42:51Z</time>
      </trkpt>
      <trkpt lat="42.97456" lon="0.24442">
        <ele>928.3</ele>
        <time>2015-12-20T14:43:08Z</time>
      </trkpt>
      <trkpt lat="42.97473" lon="0.24453">
        <ele>922.4</ele>
        <time>2015-12-20T14:43:36Z</time>
      </trkpt>
      <trkpt lat="42.97476" lon="0.24442">
        <ele>920.4</ele>
        <time>2015-12-20T14:43:52Z</time>
      </trkpt>
      <trkpt lat="42.97479" lon="0.2443">
        <ele>919.8</ele>
        <time>2015-12-20T14:44:01Z</time>
      </trkpt>
      <trkpt lat="42.9748" lon="0.24416">
        <ele>918.1</ele>
        <time>2015-12-20T14:44:11Z</time>
      </trkpt>
      <trkpt lat="42.97488" lon="0.24391">
        <ele>916.7</ele>
        <time>2015-12-20T14:44:30Z</time>
      </trkpt>
      <trkpt lat="42.97496" lon="0.24384">
        <ele>915.6</ele>
        <time>2015-12-20T14:44:41Z</time>
      </trkpt>
      <trkpt lat="42.97504" lon="0.24376">
        <ele>914.8</ele>
        <time>2015-12-20T14:44:50Z</time>
      </trkpt>
      <trkpt lat="42.97511" lon="0.24367">
        <ele>913.6</ele>
        <time>2015-12-20T14:45:00Z</time>
      </trkpt>
      <trkpt lat="42.9752" lon="0.24363">
        <ele>913.1</ele>
        <time>2015-12-20T14:45:12Z</time>
      </trkpt>
      <trkpt lat="42.97539" lon="0.24365">
        <ele>911.4</ele>
        <time>2015-12-20T14:45:35Z</time>
      </trkpt>
      <trkpt lat="42.97548" lon="0.24367">
        <ele>909.9</ele>
        <time>2015-12-20T14:45:47Z</time>
      </trkpt>
      <trkpt lat="42.97551" lon="0.24359">
        <ele>909.4</ele>
        <time>2015-12-20T14:46:30Z</time>
      </trkpt>
    </trkseg>
  </trk>
</gpx>